PWSweather.com
Personal Weather Stations
Station Observations
KM01CL
Kitemaniak 01, Castiglione Del LagoIT 06061

Kitemaniak 01Castiglione Del LagoIT 06061

Lat: 43.133808, Lon: 12.045753

Elevation: 997

Station Type: Ventus W831

High Low Average
Temperature 49.5°F9.7°C 29.7°F-1.3°C 39.2°F4.0°C
Dew Point 42.1°F5.6°C 26.3°F-3.2°C 35.5°F1.9°C
Winds 13.0 mph 20.9 kmh Calm Calm 4.0 mph SSE6.4 kmh SSE
Wind Gusts 15.9 mph25.6 kmh -- 5.0 mph8.0 kmh
Humidity 91% 70% 86%
Pressure 29.82 in1009.8 mb 29.66 in1004.4 mb -
Precipitation 0.04 in1.0 mm - -
Hour Temp Dew Point Humidity Winds Wind Gusts Pressure Precip Precip Rate Daily Precip Total
12:01 AM 35.8°F2.1°C 33.1°F0.6°C 90% 1.6 mph W2.6 kmh W 2.2 mph3.5 kmh 29.67 in1004.7 mb 0.01 in0.3 mm 0.71 in18.0 mm 0.01 in0.3 mm
12:03 AM 35.8°F2.1°C 33.1°F0.6°C 90% 1.6 mph NW2.6 kmh NW 2.2 mph3.5 kmh 29.66 in1004.4 mb 0.01 in0.3 mm 0.00 in0.0 mm 0.01 in0.3 mm
12:05 AM 35.8°F2.1°C 33.1°F0.6°C 90% 1.6 mph WSW2.6 kmh WSW 2.2 mph3.5 kmh 29.67 in1004.7 mb 0.01 in0.3 mm 0.00 in0.0 mm 0.01 in0.3 mm
12:07 AM 35.8°F2.1°C 33.1°F0.6°C 90% 1.6 mph W2.6 kmh W 3.1 mph5.0 kmh 29.67 in1004.7 mb 0.01 in0.3 mm 0.00 in0.0 mm 0.01 in0.3 mm
12:09 AM 35.8°F2.1°C 33.1°F0.6°C 90% 0.7 mph W1.1 kmh W 1.6 mph2.6 kmh 29.67 in1004.7 mb 0.00 in0.0 mm 0.00 in0.0 mm 0.01 in0.3 mm
12:11 AM 35.8°F2.1°C 33.1°F0.6°C 90% 1.6 mph W2.6 kmh W 2.2 mph3.5 kmh 29.67 in1004.7 mb 0.00 in0.0 mm 0.00 in0.0 mm 0.01 in0.3 mm
12:13 AM 35.6°F2.0°C 33.0°F0.6°C 90% 2.2 mph W3.5 kmh W 3.1 mph5.0 kmh 29.67 in1004.7 mb 0.00 in0.0 mm 0.00 in0.0 mm 0.01 in0.3 mm
12:15 AM 35.6°F2.0°C 33.0°F0.6°C 90% 1.6 mph W2.6 kmh W 2.2 mph3.5 kmh 29.67 in1004.7 mb 0.00 in0.0 mm 0.00 in0.0 mm 0.01 in0.3 mm
12:17 AM 35.6°F2.0°C 33.0°F0.6°C 90% 2.2 mph W3.5 kmh W 3.8 mph6.1 kmh 29.67 in1004.7 mb 0.00 in0.0 mm 0.00 in0.0 mm 0.01 in0.3 mm
12:19 AM 35.6°F2.0°C 33.0°F0.6°C 90% 0.7 mph W1.1 kmh W 1.6 mph2.6 kmh 29.67 in1004.7 mb 0.00 in0.0 mm 0.00 in0.0 mm 0.01 in0.3 mm
12:21 AM 35.6°F2.0°C 33.0°F0.6°C 90% 1.6 mph W2.6 kmh W 2.2 mph3.5 kmh 29.66 in1004.4 mb 0.00 in0.0 mm 0.00 in0.0 mm 0.01 in0.3 mm
12:23 AM 35.6°F2.0°C 33.0°F0.6°C 90% 2.2 mph W3.5 kmh W 3.8 mph6.1 kmh 29.66 in1004.4 mb 0.00 in0.0 mm 0.00 in0.0 mm 0.01 in0.3 mm
12:25 AM 35.6°F2.0°C 33.0°F0.6°C 90% 3.1 mph W5.0 kmh W 3.8 mph6.1 kmh 29.67 in1004.7 mb 0.00 in0.0 mm 0.00 in0.0 mm 0.01 in0.3 mm
12:27 AM 35.6°F2.0°C 33.0°F0.6°C 90% 2.2 mph SW3.5 kmh SW 3.8 mph6.1 kmh 29.67 in1004.7 mb 0.00 in0.0 mm 0.00 in0.0 mm 0.01 in0.3 mm
12:29 AM 35.6°F2.0°C 33.0°F0.6°C 90% 2.2 mph W3.5 kmh W 3.1 mph5.0 kmh 29.67 in1004.7 mb 0.00 in0.0 mm 0.00 in0.0 mm 0.01 in0.3 mm
12:31 AM 35.6°F2.0°C 33.0°F0.6°C 90% 3.8 mph NW6.1 kmh NW 4.5 mph7.2 kmh 29.67 in1004.7 mb 0.00 in0.0 mm 0.00 in0.0 mm 0.01 in0.3 mm
12:33 AM 35.6°F2.0°C 33.0°F0.6°C 90% 3.1 mph W5.0 kmh W 4.5 mph7.2 kmh 29.67 in1004.7 mb 0.00 in0.0 mm 0.00 in0.0 mm 0.01 in0.3 mm
12:35 AM 35.6°F2.0°C 33.0°F0.6°C 90% 2.2 mph SW3.5 kmh SW 3.8 mph6.1 kmh 29.67 in1004.7 mb 0.00 in0.0 mm 0.00 in0.0 mm 0.01 in0.3 mm
12:37 AM 35.4°F1.9°C 32.8°F0.4°C 90% 3.8 mph W6.1 kmh W 5.4 mph8.7 kmh 29.67 in1004.7 mb 0.00 in0.0 mm 0.00 in0.0 mm 0.01 in0.3 mm
12:39 AM 35.4°F1.9°C 32.8°F0.4°C 90% 5.4 mph W8.7 kmh W 6.9 mph11.1 kmh 29.67 in1004.7 mb 0.00 in0.0 mm 0.00 in0.0 mm 0.01 in0.3 mm
12:41 AM 35.2°F1.8°C 32.6°F0.3°C 90% 3.8 mph WSW6.1 kmh WSW 5.4 mph8.7 kmh 29.67 in1004.7 mb 0.00 in0.0 mm 0.00 in0.0 mm 0.01 in0.3 mm
12:43 AM 35.2°F1.8°C 32.6°F0.3°C 90% 1.6 mph SW2.6 kmh SW 3.1 mph5.0 kmh 29.67 in1004.7 mb 0.00 in0.0 mm 0.00 in0.0 mm 0.01 in0.3 mm
12:45 AM 35.2°F1.8°C 32.6°F0.3°C 90% 3.1 mph W5.0 kmh W 4.5 mph7.2 kmh 29.67 in1004.7 mb 0.00 in0.0 mm 0.00 in0.0 mm 0.01 in0.3 mm
12:47 AM 35.1°F1.7°C 32.4°F0.2°C 90% 3.8 mph W6.1 kmh W 6.0 mph9.7 kmh 29.67 in1004.7 mb 0.00 in0.0 mm 0.00 in0.0 mm 0.01 in0.3 mm
12:49 AM 35.1°F1.7°C 32.4°F0.2°C 90% 3.1 mph W5.0 kmh W 3.8 mph6.1 kmh 29.67 in1004.7 mb 0.00 in0.0 mm 0.00 in0.0 mm 0.01 in0.3 mm
12:51 AM 35.1°F1.7°C 32.4°F0.2°C 90% 2.2 mph SW3.5 kmh SW 3.1 mph5.0 kmh 29.67 in1004.7 mb 0.00 in0.0 mm 0.00 in0.0 mm 0.01 in0.3 mm
12:53 AM 35.1°F1.7°C 32.4°F0.2°C 90% 4.5 mph W7.2 kmh W 6.0 mph9.7 kmh 29.67 in1004.7 mb 0.00 in0.0 mm 0.00 in0.0 mm 0.01 in0.3 mm
12:55 AM 35.1°F1.7°C 32.4°F0.2°C 90% 3.1 mph SW5.0 kmh SW 3.8 mph6.1 kmh 29.67 in1004.7 mb 0.00 in0.0 mm 0.00 in0.0 mm 0.01 in0.3 mm
12:57 AM 35.1°F1.7°C 32.4°F0.2°C 90% 3.8 mph W6.1 kmh W 4.5 mph7.2 kmh 29.67 in1004.7 mb 0.00 in0.0 mm 0.00 in0.0 mm 0.01 in0.3 mm
12:59 AM 35.1°F1.7°C 32.4°F0.2°C 90% 3.1 mph W5.0 kmh W 3.8 mph6.1 kmh 29.67 in1004.7 mb 0.00 in0.0 mm 0.00 in0.0 mm 0.01 in0.3 mm
01:01 AM 35.1°F1.7°C 32.4°F0.2°C 90% 3.1 mph W5.0 kmh W 4.5 mph7.2 kmh 29.67 in1004.7 mb 0.00 in0.0 mm 0.00 in0.0 mm 0.01 in0.3 mm
01:03 AM 34.9°F1.6°C 32.3°F0.2°C 90% 3.1 mph W5.0 kmh W 4.5 mph7.2 kmh 29.67 in1004.7 mb 0.00 in0.0 mm 0.00 in0.0 mm 0.01 in0.3 mm
01:05 AM 34.9°F1.6°C 32.3°F0.2°C 90% 2.2 mph W3.5 kmh W 3.1 mph5.0 kmh 29.67 in1004.7 mb 0.00 in0.0 mm 0.00 in0.0 mm 0.01 in0.3 mm
01:07 AM 34.9°F1.6°C 32.3°F0.2°C 90% 1.6 mph SW2.6 kmh SW 3.1 mph5.0 kmh 29.68 in1005.1 mb 0.00 in0.0 mm 0.00 in0.0 mm 0.01 in0.3 mm
01:09 AM 34.9°F1.6°C 32.3°F0.2°C 90% 3.1 mph W5.0 kmh W 4.5 mph7.2 kmh 29.67 in1004.7 mb 0.00 in0.0 mm 0.00 in0.0 mm 0.01 in0.3 mm
01:11 AM 34.7°F1.5°C 32.1°F0.1°C 90% 3.8 mph W6.1 kmh W 5.4 mph8.7 kmh 29.67 in1004.7 mb 0.00 in0.0 mm 0.00 in0.0 mm 0.01 in0.3 mm
01:13 AM 34.7°F1.5°C 32.1°F0.1°C 90% 3.1 mph SW5.0 kmh SW 4.5 mph7.2 kmh 29.67 in1004.7 mb 0.00 in0.0 mm 0.00 in0.0 mm 0.01 in0.3 mm
01:15 AM 34.7°F1.5°C 32.1°F0.1°C 90% 4.5 mph SW7.2 kmh SW 6.9 mph11.1 kmh 29.68 in1005.1 mb 0.00 in0.0 mm 0.00 in0.0 mm 0.01 in0.3 mm
01:17 AM 34.7°F1.5°C 32.1°F0.1°C 90% 3.1 mph W5.0 kmh W 3.8 mph6.1 kmh 29.68 in1005.1 mb 0.00 in0.0 mm 0.00 in0.0 mm 0.01 in0.3 mm
01:19 AM 34.7°F1.5°C 32.1°F0.1°C 90% 3.1 mph W5.0 kmh W 3.8 mph6.1 kmh 29.67 in1004.7 mb 0.00 in0.0 mm 0.00 in0.0 mm 0.01 in0.3 mm
01:21 AM 34.5°F1.4°C 31.9°F-0.1°C 90% 3.1 mph W5.0 kmh W 3.8 mph6.1 kmh 29.68 in1005.1 mb 0.00 in0.0 mm 0.00 in0.0 mm 0.01 in0.3 mm
01:23 AM 34.5°F1.4°C 31.9°F-0.1°C 90% 3.1 mph W5.0 kmh W 3.8 mph6.1 kmh 29.67 in1004.7 mb 0.00 in0.0 mm 0.00 in0.0 mm 0.01 in0.3 mm
01:25 AM 34.5°F1.4°C 31.9°F-0.1°C 90% 3.1 mph SW5.0 kmh SW 3.8 mph6.1 kmh 29.67 in1004.7 mb 0.00 in0.0 mm 0.00 in0.0 mm 0.01 in0.3 mm
01:27 AM 34.5°F1.4°C 31.9°F-0.1°C 90% 3.8 mph W6.1 kmh W 4.5 mph7.2 kmh 29.68 in1005.1 mb 0.00 in0.0 mm 0.00 in0.0 mm 0.01 in0.3 mm
01:29 AM 34.5°F1.4°C 31.9°F-0.1°C 90% 2.2 mph W3.5 kmh W 3.8 mph6.1 kmh 29.68 in1005.1 mb 0.00 in0.0 mm 0.00 in0.0 mm 0.01 in0.3 mm
01:31 AM 34.5°F1.4°C 31.9°F-0.1°C 90% 2.2 mph W3.5 kmh W 2.2 mph3.5 kmh 29.68 in1005.1 mb 0.00 in0.0 mm 0.00 in0.0 mm 0.01 in0.3 mm
01:33 AM 34.5°F1.4°C 31.9°F-0.1°C 90% 2.2 mph W3.5 kmh W 3.1 mph5.0 kmh 29.68 in1005.1 mb 0.00 in0.0 mm 0.00 in0.0 mm 0.01 in0.3 mm
01:35 AM 34.5°F1.4°C 31.9°F-0.1°C 90% 1.6 mph SW2.6 kmh SW 2.2 mph3.5 kmh 29.68 in1005.1 mb 0.00 in0.0 mm 0.00 in0.0 mm 0.01 in0.3 mm
01:37 AM 34.5°F1.4°C 31.9°F-0.1°C 90% 3.8 mph SW6.1 kmh SW 5.4 mph8.7 kmh 29.68 in1005.1 mb 0.00 in0.0 mm 0.00 in0.0 mm 0.01 in0.3 mm
01:39 AM 34.5°F1.4°C 31.9°F-0.1°C 90% 2.2 mph W3.5 kmh W 3.1 mph5.0 kmh 29.68 in1005.1 mb 0.00 in0.0 mm 0.00 in0.0 mm 0.01 in0.3 mm
01:41 AM 34.5°F1.4°C 31.9°F-0.1°C 90% 1.6 mph W2.6 kmh W 2.2 mph3.5 kmh 29.68 in1005.1 mb 0.00 in0.0 mm 0.00 in0.0 mm 0.01 in0.3 mm
01:43 AM 34.5°F1.4°C 31.9°F-0.1°C 90% 4.5 mph W7.2 kmh W 6.9 mph11.1 kmh 29.68 in1005.1 mb 0.00 in0.0 mm 0.00 in0.0 mm 0.01 in0.3 mm
01:45 AM 34.5°F1.4°C 31.9°F-0.1°C 90% 2.2 mph W3.5 kmh W 3.8 mph6.1 kmh 29.68 in1005.1 mb 0.00 in0.0 mm 0.00 in0.0 mm 0.01 in0.3 mm
01:47 AM 34.3°F1.3°C 31.7°F-0.2°C 90% 2.2 mph WSW3.5 kmh WSW 3.8 mph6.1 kmh 29.68 in1005.1 mb 0.00 in0.0 mm 0.00 in0.0 mm 0.01 in0.3 mm
01:49 AM 34.3°F1.3°C 31.7°F-0.2°C 90% 1.6 mph SW2.6 kmh SW 2.2 mph3.5 kmh 29.68 in1005.1 mb 0.00 in0.0 mm 0.00 in0.0 mm 0.01 in0.3 mm
01:51 AM 34.3°F1.3°C 31.7°F-0.2°C 90% 0.7 mph SW1.1 kmh SW 1.6 mph2.6 kmh 29.68 in1005.1 mb 0.00 in0.0 mm 0.00 in0.0 mm 0.01 in0.3 mm
01:53 AM 34.2°F1.2°C 31.5°F-0.3°C 90% 3.1 mph W5.0 kmh W 4.5 mph7.2 kmh 29.67 in1004.7 mb 0.00 in0.0 mm 0.00 in0.0 mm 0.01 in0.3 mm
01:55 AM 34.2°F1.2°C 31.5°F-0.3°C 90% 4.5 mph WNW7.2 kmh WNW 6.0 mph9.7 kmh 29.68 in1005.1 mb 0.00 in0.0 mm 0.00 in0.0 mm 0.01 in0.3 mm
01:57 AM 34.2°F1.2°C 31.5°F-0.3°C 90% 2.2 mph W3.5 kmh W 3.1 mph5.0 kmh 29.68 in1005.1 mb 0.00 in0.0 mm 0.00 in0.0 mm 0.01 in0.3 mm
02:00 AM 34.0°F1.1°C 31.4°F-0.3°C 90% 1.6 mph WSW2.6 kmh WSW 2.2 mph3.5 kmh 29.69 in1005.4 mb 0.00 in0.0 mm 0.00 in0.0 mm 0.01 in0.3 mm
02:02 AM 34.0°F1.1°C 31.4°F-0.3°C 90% 1.6 mph WSW2.6 kmh WSW 2.2 mph3.5 kmh 29.69 in1005.4 mb 0.00 in0.0 mm 0.00 in0.0 mm 0.01 in0.3 mm
02:04 AM 34.0°F1.1°C 31.4°F-0.3°C 90% 1.6 mph WSW2.6 kmh WSW 2.2 mph3.5 kmh 29.69 in1005.4 mb 0.00 in0.0 mm 0.00 in0.0 mm 0.01 in0.3 mm
02:07 AM 34.0°F1.1°C 31.4°F-0.3°C 90% 1.6 mph WSW2.6 kmh WSW 2.2 mph3.5 kmh 29.69 in1005.4 mb 0.00 in0.0 mm 0.00 in0.0 mm 0.01 in0.3 mm
02:08 AM 34.2°F1.2°C 31.5°F-0.3°C 90% 3.1 mph W5.0 kmh W 4.5 mph7.2 kmh 29.70 in1005.8 mb 0.00 in0.0 mm 0.00 in0.0 mm 0.01 in0.3 mm
02:10 AM 34.2°F1.2°C 31.5°F-0.3°C 90% 2.2 mph SW3.5 kmh SW 3.1 mph5.0 kmh 29.69 in1005.4 mb 0.00 in0.0 mm 0.00 in0.0 mm 0.01 in0.3 mm
02:12 AM 34.2°F1.2°C 31.5°F-0.3°C 90% 2.2 mph W3.5 kmh W 3.1 mph5.0 kmh 29.69 in1005.4 mb 0.00 in0.0 mm 0.00 in0.0 mm 0.01 in0.3 mm
02:14 AM 34.2°F1.2°C 31.5°F-0.3°C 90% 3.8 mph SW6.1 kmh SW 4.5 mph7.2 kmh 29.70 in1005.8 mb 0.00 in0.0 mm 0.00 in0.0 mm 0.01 in0.3 mm
02:16 AM 34.2°F1.2°C 31.5°F-0.3°C 90% 3.1 mph NW5.0 kmh NW 3.8 mph6.1 kmh 29.70 in1005.8 mb 0.00 in0.0 mm 0.00 in0.0 mm 0.01 in0.3 mm
02:18 AM 34.2°F1.2°C 31.5°F-0.3°C 90% 3.1 mph W5.0 kmh W 3.8 mph6.1 kmh 29.70 in1005.8 mb 0.00 in0.0 mm 0.00 in0.0 mm 0.01 in0.3 mm
02:20 AM 34.3°F1.3°C 31.7°F-0.2°C 90% 2.2 mph W3.5 kmh W 3.8 mph6.1 kmh 29.70 in1005.8 mb 0.00 in0.0 mm 0.00 in0.0 mm 0.01 in0.3 mm
02:22 AM 34.3°F1.3°C 31.7°F-0.2°C 90% 3.1 mph W5.0 kmh W 3.8 mph6.1 kmh 29.71 in1006.1 mb 0.00 in0.0 mm 0.00 in0.0 mm 0.01 in0.3 mm
02:24 AM 34.3°F1.3°C 31.7°F-0.2°C 90% 3.1 mph W5.0 kmh W 3.8 mph6.1 kmh 29.70 in1005.8 mb 0.00 in0.0 mm 0.00 in0.0 mm 0.01 in0.3 mm
02:26 AM 34.3°F1.3°C 31.7°F-0.2°C 90% 3.1 mph WSW5.0 kmh WSW 4.5 mph7.2 kmh 29.71 in1006.1 mb 0.00 in0.0 mm 0.00 in0.0 mm 0.01 in0.3 mm
02:28 AM 34.3°F1.3°C 31.7°F-0.2°C 90% 1.6 mph W2.6 kmh W 2.2 mph3.5 kmh 29.71 in1006.1 mb 0.00 in0.0 mm 0.00 in0.0 mm 0.01 in0.3 mm
02:30 AM 34.3°F1.3°C 31.7°F-0.2°C 90% 3.1 mph SW5.0 kmh SW 4.5 mph7.2 kmh 29.71 in1006.1 mb 0.00 in0.0 mm 0.00 in0.0 mm 0.01 in0.3 mm
02:32 AM 34.3°F1.3°C 31.7°F-0.2°C 90% 1.6 mph SW2.6 kmh SW 2.2 mph3.5 kmh 29.71 in1006.1 mb 0.00 in0.0 mm 0.00 in0.0 mm 0.01 in0.3 mm
02:34 AM 34.3°F1.3°C 31.7°F-0.2°C 90% 3.1 mph W5.0 kmh W 5.4 mph8.7 kmh 29.71 in1006.1 mb 0.00 in0.0 mm 0.00 in0.0 mm 0.01 in0.3 mm
02:36 AM 34.5°F1.4°C 31.9°F-0.1°C 90% 1.6 mph SW2.6 kmh SW 2.2 mph3.5 kmh 29.71 in1006.1 mb 0.00 in0.0 mm 0.00 in0.0 mm 0.01 in0.3 mm
02:38 AM 34.5°F1.4°C 31.9°F-0.1°C 90% 2.2 mph SW3.5 kmh SW 3.1 mph5.0 kmh 29.71 in1006.1 mb 0.00 in0.0 mm 0.00 in0.0 mm 0.01 in0.3 mm
02:40 AM 34.5°F1.4°C 31.9°F-0.1°C 90% 1.6 mph SW2.6 kmh SW 3.1 mph5.0 kmh 29.71 in1006.1 mb 0.00 in0.0 mm 0.00 in0.0 mm 0.01 in0.3 mm
02:42 AM 34.5°F1.4°C 31.9°F-0.1°C 90% 2.2 mph W3.5 kmh W 3.1 mph5.0 kmh 29.71 in1006.1 mb 0.00 in0.0 mm 0.00 in0.0 mm 0.01 in0.3 mm
02:44 AM 34.5°F1.4°C 31.9°F-0.1°C 90% 2.2 mph W3.5 kmh W 3.1 mph5.0 kmh 29.71 in1006.1 mb 0.00 in0.0 mm 0.00 in0.0 mm 0.01 in0.3 mm
02:46 AM 34.5°F1.4°C 31.9°F-0.1°C 90% 3.1 mph W5.0 kmh W 4.5 mph7.2 kmh 29.71 in1006.1 mb 0.00 in0.0 mm 0.00 in0.0 mm 0.01 in0.3 mm
02:48 AM 34.5°F1.4°C 31.9°F-0.1°C 90% 2.2 mph W3.5 kmh W 3.1 mph5.0 kmh 29.71 in1006.1 mb 0.00 in0.0 mm 0.00 in0.0 mm 0.01 in0.3 mm
02:50 AM 34.5°F1.4°C 31.9°F-0.1°C 90% 1.6 mph SW2.6 kmh SW 2.2 mph3.5 kmh 29.72 in1006.4 mb 0.00 in0.0 mm 0.00 in0.0 mm 0.01 in0.3 mm
02:52 AM 34.5°F1.4°C 31.9°F-0.1°C 90% 4.5 mph W7.2 kmh W 6.0 mph9.7 kmh 29.71 in1006.1 mb 0.00 in0.0 mm 0.00 in0.0 mm 0.01 in0.3 mm
02:54 AM 34.5°F1.4°C 31.9°F-0.1°C 90% 4.5 mph NW7.2 kmh NW 6.0 mph9.7 kmh 29.72 in1006.4 mb 0.00 in0.0 mm 0.00 in0.0 mm 0.01 in0.3 mm
02:56 AM 34.5°F1.4°C 31.9°F-0.1°C 90% 5.4 mph W8.7 kmh W 6.0 mph9.7 kmh 29.71 in1006.1 mb 0.00 in0.0 mm 0.00 in0.0 mm 0.01 in0.3 mm
02:58 AM 34.5°F1.4°C 31.9°F-0.1°C 90% 2.2 mph NW3.5 kmh NW 3.1 mph5.0 kmh 29.71 in1006.1 mb 0.00 in0.0 mm 0.00 in0.0 mm 0.01 in0.3 mm
03:00 AM 34.5°F1.4°C 31.9°F-0.1°C 90% 3.1 mph W5.0 kmh W 3.8 mph6.1 kmh 29.71 in1006.1 mb 0.00 in0.0 mm 0.00 in0.0 mm 0.01 in0.3 mm
03:02 AM 34.5°F1.4°C 31.9°F-0.1°C 90% 5.4 mph WNW8.7 kmh WNW 6.0 mph9.7 kmh 29.71 in1006.1 mb 0.00 in0.0 mm 0.00 in0.0 mm 0.01 in0.3 mm
03:04 AM 34.5°F1.4°C 31.9°F-0.1°C 90% 3.1 mph NW5.0 kmh NW 4.5 mph7.2 kmh 29.71 in1006.1 mb 0.00 in0.0 mm 0.00 in0.0 mm 0.01 in0.3 mm
03:06 AM 34.3°F1.3°C 31.7°F-0.2°C 90% 2.2 mph NW3.5 kmh NW 3.1 mph5.0 kmh 29.71 in1006.1 mb 0.00 in0.0 mm 0.00 in0.0 mm 0.01 in0.3 mm
03:08 AM 34.3°F1.3°C 31.7°F-0.2°C 90% 3.1 mph NW5.0 kmh NW 3.8 mph6.1 kmh 29.71 in1006.1 mb 0.00 in0.0 mm 0.00 in0.0 mm 0.01 in0.3 mm
03:10 AM 34.3°F1.3°C 31.7°F-0.2°C 90% 3.1 mph W5.0 kmh W 4.5 mph7.2 kmh 29.71 in1006.1 mb 0.00 in0.0 mm 0.00 in0.0 mm 0.01 in0.3 mm
03:12 AM 34.3°F1.3°C 31.7°F-0.2°C 90% 1.6 mph W2.6 kmh W 3.1 mph5.0 kmh 29.71 in1006.1 mb 0.00 in0.0 mm 0.00 in0.0 mm 0.01 in0.3 mm
03:14 AM 34.3°F1.3°C 31.7°F-0.2°C 90% 3.1 mph WSW5.0 kmh WSW 4.5 mph7.2 kmh 29.72 in1006.4 mb 0.00 in0.0 mm 0.00 in0.0 mm 0.01 in0.3 mm
03:16 AM 34.3°F1.3°C 31.7°F-0.2°C 90% 0.7 mph SW1.1 kmh SW 2.2 mph3.5 kmh 29.73 in1006.8 mb 0.00 in0.0 mm 0.00 in0.0 mm 0.01 in0.3 mm
03:18 AM 34.3°F1.3°C 31.7°F-0.2°C 90% 2.2 mph SW3.5 kmh SW 3.1 mph5.0 kmh 29.72 in1006.4 mb 0.00 in0.0 mm 0.00 in0.0 mm 0.01 in0.3 mm
03:20 AM 34.3°F1.3°C 31.7°F-0.2°C 90% 0.7 mph SW1.1 kmh SW 1.6 mph2.6 kmh 29.72 in1006.4 mb 0.00 in0.0 mm 0.00 in0.0 mm 0.01 in0.3 mm
03:22 AM 34.2°F1.2°C 31.5°F-0.3°C 90% 1.6 mph SW2.6 kmh SW 2.2 mph3.5 kmh 29.72 in1006.4 mb 0.00 in0.0 mm 0.00 in0.0 mm 0.01 in0.3 mm
03:24 AM 34.2°F1.2°C 31.5°F-0.3°C 90% 0.7 mph SW1.1 kmh SW 1.6 mph2.6 kmh 29.72 in1006.4 mb 0.00 in0.0 mm 0.00 in0.0 mm 0.01 in0.3 mm
03:26 AM 34.2°F1.2°C 31.5°F-0.3°C 90% 0.7 mph W1.1 kmh W 1.6 mph2.6 kmh 29.72 in1006.4 mb 0.00 in0.0 mm 0.00 in0.0 mm 0.01 in0.3 mm
03:28 AM 34.2°F1.2°C 31.5°F-0.3°C 90% 0.7 mph SW1.1 kmh SW 1.6 mph2.6 kmh 29.72 in1006.4 mb 0.00 in0.0 mm 0.00 in0.0 mm 0.01 in0.3 mm
03:30 AM 34.2°F1.2°C 31.5°F-0.3°C 90% 2.2 mph SW3.5 kmh SW 3.1 mph5.0 kmh 29.72 in1006.4 mb 0.00 in0.0 mm 0.00 in0.0 mm 0.01 in0.3 mm
03:32 AM 34.2°F1.2°C 31.5°F-0.3°C 90% 2.2 mph SW3.5 kmh SW 3.1 mph5.0 kmh 29.72 in1006.4 mb 0.00 in0.0 mm 0.00 in0.0 mm 0.01 in0.3 mm
03:34 AM 34.0°F1.1°C 31.4°F-0.3°C 90% 1.6 mph SW2.6 kmh SW 2.2 mph3.5 kmh 29.72 in1006.4 mb 0.00 in0.0 mm 0.00 in0.0 mm 0.01 in0.3 mm
03:36 AM 34.0°F1.1°C 31.4°F-0.3°C 90% 2.2 mph SW3.5 kmh SW 3.8 mph6.1 kmh 29.72 in1006.4 mb 0.00 in0.0 mm 0.00 in0.0 mm 0.01 in0.3 mm
03:38 AM 34.0°F1.1°C 31.4°F-0.3°C 90% Calm Calm 0.7 mph1.1 kmh 29.71 in1006.1 mb 0.00 in0.0 mm 0.00 in0.0 mm 0.01 in0.3 mm
03:40 AM 33.8°F1.0°C 31.2°F-0.4°C 90% 0.7 mph SW1.1 kmh SW 1.6 mph2.6 kmh 29.72 in1006.4 mb 0.00 in0.0 mm 0.00 in0.0 mm 0.01 in0.3 mm
03:42 AM 33.8°F1.0°C 31.2°F-0.4°C 90% 0.7 mph SW1.1 kmh SW 1.6 mph2.6 kmh 29.72 in1006.4 mb 0.00 in0.0 mm 0.00 in0.0 mm 0.01 in0.3 mm
03:44 AM 33.6°F0.9°C 31.0°F-0.6°C 90% 1.6 mph SW2.6 kmh SW 3.1 mph5.0 kmh 29.71 in1006.1 mb 0.00 in0.0 mm 0.00 in0.0 mm 0.01 in0.3 mm
03:46 AM 33.6°F0.9°C 30.7°F-0.7°C 89% Calm Calm 0.7 mph1.1 kmh 29.72 in1006.4 mb 0.00 in0.0 mm 0.00 in0.0 mm 0.01 in0.3 mm
03:48 AM 33.4°F0.8°C 30.6°F-0.8°C 89% 0.7 mph SW1.1 kmh SW 1.6 mph2.6 kmh 29.72 in1006.4 mb 0.00 in0.0 mm 0.00 in0.0 mm 0.01 in0.3 mm
03:50 AM 33.4°F0.8°C 30.6°F-0.8°C 89% 1.6 mph SW2.6 kmh SW 2.2 mph3.5 kmh 29.72 in1006.4 mb 0.00 in0.0 mm 0.00 in0.0 mm 0.01 in0.3 mm
03:52 AM 33.3°F0.7°C 30.4°F-0.9°C 89% 0.7 mph SW1.1 kmh SW 1.6 mph2.6 kmh 29.71 in1006.1 mb 0.00 in0.0 mm 0.00 in0.0 mm 0.01 in0.3 mm
03:54 AM 33.3°F0.7°C 30.4°F-0.9°C 89% 0.7 mph SW1.1 kmh SW 2.2 mph3.5 kmh 29.72 in1006.4 mb 0.00 in0.0 mm 0.00 in0.0 mm 0.01 in0.3 mm
03:56 AM 33.1°F0.6°C 30.2°F-1.0°C 89% 1.6 mph SW2.6 kmh SW 2.2 mph3.5 kmh 29.72 in1006.4 mb 0.00 in0.0 mm 0.00 in0.0 mm 0.01 in0.3 mm
03:58 AM 33.1°F0.6°C 30.2°F-1.0°C 89% 1.6 mph SW2.6 kmh SW 2.2 mph3.5 kmh 29.72 in1006.4 mb 0.00 in0.0 mm 0.00 in0.0 mm 0.01 in0.3 mm
04:00 AM 32.9°F0.5°C 30.0°F-1.1°C 89% 0.7 mph SW1.1 kmh SW 1.6 mph2.6 kmh 29.72 in1006.4 mb 0.00 in0.0 mm 0.00 in0.0 mm 0.01 in0.3 mm
04:02 AM 32.9°F0.5°C 30.0°F-1.1°C 89% 0.7 mph SW1.1 kmh SW 1.6 mph2.6 kmh 29.72 in1006.4 mb 0.00 in0.0 mm 0.00 in0.0 mm 0.01 in0.3 mm
04:04 AM 32.7°F0.4°C 29.8°F-1.2°C 89% 0.7 mph SW1.1 kmh SW 1.6 mph2.6 kmh 29.72 in1006.4 mb 0.00 in0.0 mm 0.00 in0.0 mm 0.01 in0.3 mm
04:06 AM 32.7°F0.4°C 29.8°F-1.2°C 89% 1.6 mph SW2.6 kmh SW 2.2 mph3.5 kmh 29.73 in1006.8 mb 0.00 in0.0 mm 0.00 in0.0 mm 0.01 in0.3 mm
04:08 AM 32.7°F0.4°C 29.8°F-1.2°C 89% 1.6 mph SW2.6 kmh SW 2.2 mph3.5 kmh 29.73 in1006.8 mb 0.00 in0.0 mm 0.00 in0.0 mm 0.01 in0.3 mm
04:10 AM 32.7°F0.4°C 29.8°F-1.2°C 89% 1.6 mph SW2.6 kmh SW 1.6 mph2.6 kmh 29.72 in1006.4 mb 0.00 in0.0 mm 0.00 in0.0 mm 0.01 in0.3 mm
04:12 AM 32.5°F0.3°C 29.7°F-1.3°C 89% 1.6 mph SW2.6 kmh SW 2.2 mph3.5 kmh 29.73 in1006.8 mb 0.00 in0.0 mm 0.00 in0.0 mm 0.01 in0.3 mm
04:14 AM 32.5°F0.3°C 29.7°F-1.3°C 89% 0.7 mph SW1.1 kmh SW 1.6 mph2.6 kmh 29.72 in1006.4 mb 0.00 in0.0 mm 0.00 in0.0 mm 0.01 in0.3 mm
04:16 AM 32.5°F0.3°C 29.7°F-1.3°C 89% 0.7 mph SW1.1 kmh SW 1.6 mph2.6 kmh 29.72 in1006.4 mb 0.00 in0.0 mm 0.00 in0.0 mm 0.01 in0.3 mm
04:18 AM 32.5°F0.3°C 29.7°F-1.3°C 89% 1.6 mph SW2.6 kmh SW 2.2 mph3.5 kmh 29.73 in1006.8 mb 0.00 in0.0 mm 0.00 in0.0 mm 0.01 in0.3 mm
04:20 AM 32.4°F0.2°C 29.5°F-1.4°C 89% 0.7 mph SW1.1 kmh SW 1.6 mph2.6 kmh 29.72 in1006.4 mb 0.00 in0.0 mm 0.00 in0.0 mm 0.01 in0.3 mm
04:22 AM 32.4°F0.2°C 29.5°F-1.4°C 89% 0.7 mph SW1.1 kmh SW 1.6 mph2.6 kmh 29.73 in1006.8 mb 0.00 in0.0 mm 0.00 in0.0 mm 0.01 in0.3 mm
04:24 AM 32.2°F0.1°C 29.3°F-1.5°C 89% 0.7 mph SW1.1 kmh SW 1.6 mph2.6 kmh 29.73 in1006.8 mb 0.00 in0.0 mm 0.00 in0.0 mm 0.01 in0.3 mm
04:26 AM 32.2°F0.1°C 29.3°F-1.5°C 89% 1.6 mph SW2.6 kmh SW 2.2 mph3.5 kmh 29.73 in1006.8 mb 0.00 in0.0 mm 0.00 in0.0 mm 0.01 in0.3 mm
04:28 AM 32.2°F0.1°C 29.3°F-1.5°C 89% 1.6 mph SW2.6 kmh SW 2.2 mph3.5 kmh 29.73 in1006.8 mb 0.00 in0.0 mm 0.00 in0.0 mm 0.01 in0.3 mm
04:30 AM 32.0°F0.0°C 29.1°F-1.6°C 89% 0.7 mph SW1.1 kmh SW 1.6 mph2.6 kmh 29.73 in1006.8 mb 0.00 in0.0 mm 0.00 in0.0 mm 0.01 in0.3 mm
04:32 AM 32.0°F0.0°C 28.9°F-1.7°C 88% 0.7 mph SW1.1 kmh SW 1.6 mph2.6 kmh 29.73 in1006.8 mb 0.00 in0.0 mm 0.00 in0.0 mm 0.01 in0.3 mm
04:34 AM 31.8°F-0.1°C 28.7°F-1.8°C 88% 0.7 mph SW1.1 kmh SW 1.6 mph2.6 kmh 29.73 in1006.8 mb 0.00 in0.0 mm 0.00 in0.0 mm 0.01 in0.3 mm
04:36 AM 31.8°F-0.1°C 28.7°F-1.8°C 88% Calm Calm 0.7 mph1.1 kmh 29.73 in1006.8 mb 0.00 in0.0 mm 0.00 in0.0 mm 0.01 in0.3 mm
04:38 AM 31.8°F-0.1°C 28.7°F-1.8°C 88% 0.7 mph SW1.1 kmh SW 1.6 mph2.6 kmh 29.73 in1006.8 mb 0.00 in0.0 mm 0.00 in0.0 mm 0.01 in0.3 mm
04:40 AM 31.8°F-0.1°C 28.7°F-1.8°C 88% 0.7 mph SW1.1 kmh SW 1.6 mph2.6 kmh 29.73 in1006.8 mb 0.00 in0.0 mm 0.00 in0.0 mm 0.01 in0.3 mm
04:42 AM 31.8°F-0.1°C 28.7°F-1.8°C 88% 1.6 mph SW2.6 kmh SW 2.2 mph3.5 kmh 29.73 in1006.8 mb 0.00 in0.0 mm 0.00 in0.0 mm 0.01 in0.3 mm
04:44 AM 31.8°F-0.1°C 28.7°F-1.8°C 88% 1.6 mph SW2.6 kmh SW 2.2 mph3.5 kmh 29.74 in1007.1 mb 0.00 in0.0 mm 0.00 in0.0 mm 0.01 in0.3 mm
04:46 AM 32.0°F0.0°C 29.1°F-1.6°C 89% 1.6 mph SW2.6 kmh SW 2.2 mph3.5 kmh 29.74 in1007.1 mb 0.00 in0.0 mm 0.00 in0.0 mm 0.01 in0.3 mm
04:48 AM 32.0°F0.0°C 29.1°F-1.6°C 89% 1.6 mph SW2.6 kmh SW 2.2 mph3.5 kmh 29.74 in1007.1 mb 0.00 in0.0 mm 0.00 in0.0 mm 0.01 in0.3 mm
04:50 AM 32.0°F0.0°C 29.1°F-1.6°C 89% 0.7 mph SW1.1 kmh SW 1.6 mph2.6 kmh 29.74 in1007.1 mb 0.00 in0.0 mm 0.00 in0.0 mm 0.01 in0.3 mm
04:52 AM 32.0°F0.0°C 29.1°F-1.6°C 89% 1.6 mph SW2.6 kmh SW 2.2 mph3.5 kmh 29.74 in1007.1 mb 0.00 in0.0 mm 0.00 in0.0 mm 0.01 in0.3 mm
04:54 AM 32.0°F0.0°C 29.1°F-1.6°C 89% 2.2 mph SW3.5 kmh SW 3.1 mph5.0 kmh 29.74 in1007.1 mb 0.00 in0.0 mm 0.00 in0.0 mm 0.01 in0.3 mm
04:56 AM 32.0°F0.0°C 29.1°F-1.6°C 89% 1.6 mph SW2.6 kmh SW 2.2 mph3.5 kmh 29.74 in1007.1 mb 0.00 in0.0 mm 0.00 in0.0 mm 0.01 in0.3 mm
04:58 AM 32.0°F0.0°C 28.9°F-1.7°C 88% 1.6 mph SW2.6 kmh SW 2.2 mph3.5 kmh 29.74 in1007.1 mb 0.00 in0.0 mm 0.00 in0.0 mm 0.01 in0.3 mm
05:00 AM 31.8°F-0.1°C 28.7°F-1.8°C 88% 2.2 mph SW3.5 kmh SW 3.1 mph5.0 kmh 29.74 in1007.1 mb 0.00 in0.0 mm 0.00 in0.0 mm 0.01 in0.3 mm
05:02 AM 31.8°F-0.1°C 28.7°F-1.8°C 88% 0.7 mph SW1.1 kmh SW 1.6 mph2.6 kmh 29.74 in1007.1 mb 0.00 in0.0 mm 0.00 in0.0 mm 0.01 in0.3 mm
05:05 AM 31.8°F-0.1°C 28.7°F-1.8°C 88% Calm Calm 0.7 mph1.1 kmh 29.74 in1007.1 mb 0.00 in0.0 mm 0.00 in0.0 mm 0.01 in0.3 mm
05:07 AM 31.8°F-0.1°C 28.7°F-1.8°C 88% 0.7 mph SW1.1 kmh SW 1.6 mph2.6 kmh 29.74 in1007.1 mb 0.00 in0.0 mm 0.00 in0.0 mm 0.01 in0.3 mm
05:09 AM 31.8°F-0.1°C 28.7°F-1.8°C 88% Calm Calm 0.7 mph1.1 kmh 29.74 in1007.1 mb 0.00 in0.0 mm 0.00 in0.0 mm 0.01 in0.3 mm
05:11 AM 31.6°F-0.2°C 28.5°F-1.9°C 88% Calm Calm -- 29.74 in1007.1 mb 0.00 in0.0 mm 0.00 in0.0 mm 0.01 in0.3 mm
05:13 AM 31.6°F-0.2°C 28.5°F-1.9°C 88% Calm Calm -- 29.74 in1007.1 mb 0.00 in0.0 mm 0.00 in0.0 mm 0.01 in0.3 mm
05:15 AM 31.6°F-0.2°C 28.5°F-1.9°C 88% 0.7 mph SW1.1 kmh SW 1.6 mph2.6 kmh 29.75 in1007.5 mb 0.00 in0.0 mm 0.00 in0.0 mm 0.01 in0.3 mm
05:17 AM 31.6°F-0.2°C 28.5°F-1.9°C 88% Calm Calm 0.7 mph1.1 kmh 29.74 in1007.1 mb 0.00 in0.0 mm 0.00 in0.0 mm 0.01 in0.3 mm
05:19 AM 31.6°F-0.2°C 28.5°F-1.9°C 88% Calm Calm 1.6 mph2.6 kmh 29.75 in1007.5 mb 0.00 in0.0 mm 0.00 in0.0 mm 0.01 in0.3 mm
05:21 AM 31.6°F-0.2°C 28.5°F-1.9°C 88% Calm Calm -- 29.74 in1007.1 mb 0.00 in0.0 mm 0.00 in0.0 mm 0.01 in0.3 mm
05:23 AM 31.6°F-0.2°C 28.5°F-1.9°C 88% Calm Calm -- 29.74 in1007.1 mb 0.00 in0.0 mm 0.00 in0.0 mm 0.01 in0.3 mm
05:25 AM 31.6°F-0.2°C 28.5°F-1.9°C 88% Calm Calm -- 29.74 in1007.1 mb 0.00 in0.0 mm 0.00 in0.0 mm 0.01 in0.3 mm
05:27 AM 31.6°F-0.2°C 28.5°F-1.9°C 88% Calm Calm -- 29.75 in1007.5 mb 0.00 in0.0 mm 0.00 in0.0 mm 0.01 in0.3 mm
05:29 AM 31.6°F-0.2°C 28.5°F-1.9°C 88% Calm Calm -- 29.74 in1007.1 mb 0.00 in0.0 mm 0.00 in0.0 mm 0.01 in0.3 mm
05:31 AM 31.6°F-0.2°C 28.5°F-1.9°C 88% Calm Calm -- 29.74 in1007.1 mb 0.00 in0.0 mm 0.00 in0.0 mm 0.01 in0.3 mm
05:33 AM 31.5°F-0.3°C 28.3°F-2.1°C 88% Calm Calm -- 29.74 in1007.1 mb 0.00 in0.0 mm 0.00 in0.0 mm 0.01 in0.3 mm
05:35 AM 31.5°F-0.3°C 28.3°F-2.1°C 88% Calm Calm -- 29.74 in1007.1 mb 0.00 in0.0 mm 0.00 in0.0 mm 0.01 in0.3 mm
05:38 AM 31.5°F-0.3°C 28.3°F-2.1°C 88% Calm Calm -- 29.74 in1007.1 mb 0.00 in0.0 mm 0.00 in0.0 mm 0.01 in0.3 mm
05:39 AM 31.3°F-0.4°C 28.2°F-2.1°C 88% Calm Calm -- 29.74 in1007.1 mb 0.00 in0.0 mm 0.00 in0.0 mm 0.01 in0.3 mm
05:41 AM 31.1°F-0.5°C 28.0°F-2.2°C 88% Calm Calm -- 29.74 in1007.1 mb 0.00 in0.0 mm 0.00 in0.0 mm 0.01 in0.3 mm
05:43 AM 30.9°F-0.6°C 27.8°F-2.3°C 88% Calm Calm -- 29.74 in1007.1 mb 0.00 in0.0 mm 0.00 in0.0 mm 0.01 in0.3 mm
05:45 AM 30.9°F-0.6°C 27.8°F-2.3°C 88% Calm Calm -- 29.75 in1007.5 mb 0.00 in0.0 mm 0.00 in0.0 mm 0.01 in0.3 mm
05:47 AM 30.7°F-0.7°C 27.6°F-2.4°C 88% Calm Calm -- 29.75 in1007.5 mb 0.00 in0.0 mm 0.00 in0.0 mm 0.01 in0.3 mm
05:49 AM 30.6°F-0.8°C 27.4°F-2.6°C 88% Calm Calm -- 29.75 in1007.5 mb 0.00 in0.0 mm 0.00 in0.0 mm 0.01 in0.3 mm
05:51 AM 30.4°F-0.9°C 27.3°F-2.6°C 88% Calm Calm -- 29.75 in1007.5 mb 0.00 in0.0 mm 0.00 in0.0 mm 0.01 in0.3 mm
05:53 AM 30.2°F-1.0°C 27.1°F-2.7°C 88% Calm Calm -- 29.75 in1007.5 mb 0.00 in0.0 mm 0.00 in0.0 mm 0.01 in0.3 mm
05:55 AM 30.2°F-1.0°C 27.1°F-2.7°C 88% Calm Calm -- 29.75 in1007.5 mb 0.00 in0.0 mm 0.00 in0.0 mm 0.01 in0.3 mm
05:57 AM 30.0°F-1.1°C 26.9°F-2.8°C 88% Calm Calm -- 29.76 in1007.8 mb 0.00 in0.0 mm 0.00 in0.0 mm 0.01 in0.3 mm
05:59 AM 30.2°F-1.0°C 27.1°F-2.7°C 88% Calm Calm -- 29.75 in1007.5 mb 0.00 in0.0 mm 0.00 in0.0 mm 0.01 in0.3 mm
06:01 AM 30.2°F-1.0°C 27.1°F-2.7°C 88% Calm Calm -- 29.75 in1007.5 mb 0.00 in0.0 mm 0.00 in0.0 mm 0.01 in0.3 mm
06:03 AM 30.6°F-0.8°C 27.4°F-2.6°C 88% Calm Calm -- 29.75 in1007.5 mb 0.00 in0.0 mm 0.00 in0.0 mm 0.01 in0.3 mm
06:05 AM 30.7°F-0.7°C 27.6°F-2.4°C 88% Calm Calm -- 29.75 in1007.5 mb 0.00 in0.0 mm 0.00 in0.0 mm 0.01 in0.3 mm
06:07 AM 30.7°F-0.7°C 27.6°F-2.4°C 88% Calm Calm -- 29.74 in1007.1 mb 0.00 in0.0 mm 0.00 in0.0 mm 0.01 in0.3 mm
06:09 AM 30.7°F-0.7°C 27.6°F-2.4°C 88% Calm Calm -- 29.74 in1007.1 mb 0.00 in0.0 mm 0.00 in0.0 mm 0.01 in0.3 mm
06:11 AM 30.7°F-0.7°C 27.6°F-2.4°C 88% Calm Calm -- 29.75 in1007.5 mb 0.00 in0.0 mm 0.00 in0.0 mm 0.01 in0.3 mm
06:13 AM 30.7°F-0.7°C 27.6°F-2.4°C 88% Calm Calm -- 29.75 in1007.5 mb 0.00 in0.0 mm 0.00 in0.0 mm 0.01 in0.3 mm
06:15 AM 30.7°F-0.7°C 27.6°F-2.4°C 88% Calm Calm -- 29.75 in1007.5 mb 0.00 in0.0 mm 0.00 in0.0 mm 0.01 in0.3 mm
06:17 AM 30.6°F-0.8°C 27.4°F-2.6°C 88% Calm Calm -- 29.75 in1007.5 mb 0.00 in0.0 mm 0.00 in0.0 mm 0.01 in0.3 mm
06:19 AM 30.6°F-0.8°C 27.4°F-2.6°C 88% Calm Calm -- 29.75 in1007.5 mb 0.00 in0.0 mm 0.00 in0.0 mm 0.01 in0.3 mm
06:21 AM 30.4°F-0.9°C 27.3°F-2.6°C 88% Calm Calm -- 29.76 in1007.8 mb 0.00 in0.0 mm 0.00 in0.0 mm 0.01 in0.3 mm
06:23 AM 30.2°F-1.0°C 27.1°F-2.7°C 88% Calm Calm -- 29.76 in1007.8 mb 0.00 in0.0 mm 0.00 in0.0 mm 0.01 in0.3 mm
06:25 AM 30.2°F-1.0°C 27.1°F-2.7°C 88% Calm Calm -- 29.76 in1007.8 mb 0.00 in0.0 mm 0.00 in0.0 mm 0.01 in0.3 mm
06:27 AM 30.0°F-1.1°C 26.9°F-2.8°C 88% Calm Calm -- 29.76 in1007.8 mb 0.00 in0.0 mm 0.00 in0.0 mm 0.01 in0.3 mm
06:29 AM 29.8°F-1.2°C 26.7°F-2.9°C 88% Calm Calm -- 29.76 in1007.8 mb 0.00 in0.0 mm 0.00 in0.0 mm 0.01 in0.3 mm
06:31 AM 29.7°F-1.3°C 26.6°F-3.0°C 88% Calm Calm -- 29.76 in1007.8 mb 0.00 in0.0 mm 0.00 in0.0 mm 0.01 in0.3 mm
06:33 AM 29.7°F-1.3°C 26.3°F-3.2°C 87% Calm Calm -- 29.76 in1007.8 mb 0.00 in0.0 mm 0.00 in0.0 mm 0.01 in0.3 mm
06:35 AM 29.7°F-1.3°C 26.3°F-3.2°C 87% Calm Calm -- 29.77 in1008.1 mb 0.00 in0.0 mm 0.00 in0.0 mm 0.01 in0.3 mm
06:37 AM 29.7°F-1.3°C 26.6°F-3.0°C 88% Calm Calm -- 29.77 in1008.1 mb 0.00 in0.0 mm 0.00 in0.0 mm 0.01 in0.3 mm
06:39 AM 29.8°F-1.2°C 26.7°F-2.9°C 88% Calm Calm -- 29.77 in1008.1 mb 0.00 in0.0 mm 0.00 in0.0 mm 0.01 in0.3 mm
06:41 AM 30.0°F-1.1°C 26.9°F-2.8°C 88% Calm Calm -- 29.77 in1008.1 mb 0.00 in0.0 mm 0.00 in0.0 mm 0.01 in0.3 mm
06:43 AM 30.2°F-1.0°C 27.1°F-2.7°C 88% Calm Calm -- 29.77 in1008.1 mb 0.00 in0.0 mm 0.00 in0.0 mm 0.01 in0.3 mm
06:45 AM 30.2°F-1.0°C 27.1°F-2.7°C 88% Calm Calm -- 29.77 in1008.1 mb 0.00 in0.0 mm 0.00 in0.0 mm 0.01 in0.3 mm
06:49 AM 30.2°F-1.0°C 27.1°F-2.7°C 88% Calm Calm -- 29.77 in1008.1 mb 0.00 in0.0 mm 0.00 in0.0 mm 0.01 in0.3 mm
06:51 AM 30.2°F-1.0°C 27.1°F-2.7°C 88% Calm Calm -- 29.77 in1008.1 mb 0.00 in0.0 mm 0.00 in0.0 mm 0.01 in0.3 mm
06:53 AM 30.0°F-1.1°C 26.9°F-2.8°C 88% Calm Calm -- 29.77 in1008.1 mb 0.00 in0.0 mm 0.00 in0.0 mm 0.01 in0.3 mm
06:55 AM 30.0°F-1.1°C 26.9°F-2.8°C 88% Calm Calm -- 29.77 in1008.1 mb 0.00 in0.0 mm 0.00 in0.0 mm 0.01 in0.3 mm
06:57 AM 30.2°F-1.0°C 27.1°F-2.7°C 88% Calm Calm -- 29.76 in1007.8 mb 0.00 in0.0 mm 0.00 in0.0 mm 0.01 in0.3 mm
06:59 AM 30.2°F-1.0°C 27.1°F-2.7°C 88% Calm Calm -- 29.76 in1007.8 mb 0.00 in0.0 mm 0.00 in0.0 mm 0.01 in0.3 mm
07:01 AM 30.2°F-1.0°C 27.1°F-2.7°C 88% Calm Calm -- 29.77 in1008.1 mb 0.00 in0.0 mm 0.00 in0.0 mm 0.01 in0.3 mm
07:03 AM 30.2°F-1.0°C 27.1°F-2.7°C 88% Calm Calm -- 29.77 in1008.1 mb 0.00 in0.0 mm 0.00 in0.0 mm 0.01 in0.3 mm
07:05 AM 30.4°F-0.9°C 27.3°F-2.6°C 88% Calm Calm -- 29.77 in1008.1 mb 0.00 in0.0 mm 0.00 in0.0 mm 0.01 in0.3 mm
07:07 AM 30.6°F-0.8°C 27.4°F-2.6°C 88% Calm Calm -- 29.77 in1008.1 mb 0.00 in0.0 mm 0.00 in0.0 mm 0.01 in0.3 mm
07:09 AM 30.7°F-0.7°C 27.6°F-2.4°C 88% Calm Calm -- 29.77 in1008.1 mb 0.00 in0.0 mm 0.00 in0.0 mm 0.01 in0.3 mm
07:11 AM 30.7°F-0.7°C 27.6°F-2.4°C 88% Calm Calm -- 29.77 in1008.1 mb 0.00 in0.0 mm 0.00 in0.0 mm 0.01 in0.3 mm
07:13 AM 30.9°F-0.6°C 27.8°F-2.3°C 88% Calm Calm -- 29.78 in1008.5 mb 0.00 in0.0 mm 0.00 in0.0 mm 0.01 in0.3 mm
07:15 AM 31.1°F-0.5°C 28.0°F-2.2°C 88% Calm Calm -- 29.77 in1008.1 mb 0.00 in0.0 mm 0.00 in0.0 mm 0.01 in0.3 mm
07:17 AM 31.3°F-0.4°C 28.2°F-2.1°C 88% Calm Calm -- 29.78 in1008.5 mb 0.00 in0.0 mm 0.00 in0.0 mm 0.01 in0.3 mm
07:19 AM 31.5°F-0.3°C 28.6°F-1.9°C 89% Calm Calm -- 29.77 in1008.1 mb 0.00 in0.0 mm 0.00 in0.0 mm 0.01 in0.3 mm
07:21 AM 31.5°F-0.3°C 28.6°F-1.9°C 89% Calm Calm -- 29.78 in1008.5 mb 0.00 in0.0 mm 0.00 in0.0 mm 0.01 in0.3 mm
07:23 AM 31.5°F-0.3°C 28.6°F-1.9°C 89% Calm Calm -- 29.77 in1008.1 mb 0.00 in0.0 mm 0.00 in0.0 mm 0.01 in0.3 mm
07:25 AM 31.5°F-0.3°C 28.6°F-1.9°C 89% Calm Calm -- 29.78 in1008.5 mb 0.00 in0.0 mm 0.00 in0.0 mm 0.01 in0.3 mm
07:27 AM 31.6°F-0.2°C 28.8°F-1.8°C 89% Calm Calm -- 29.78 in1008.5 mb 0.00 in0.0 mm 0.00 in0.0 mm 0.01 in0.3 mm
07:29 AM 31.6°F-0.2°C 28.8°F-1.8°C 89% Calm Calm -- 29.77 in1008.1 mb 0.00 in0.0 mm 0.00 in0.0 mm 0.01 in0.3 mm
07:31 AM 31.6°F-0.2°C 28.8°F-1.8°C 89% Calm Calm -- 29.78 in1008.5 mb 0.00 in0.0 mm 0.00 in0.0 mm 0.01 in0.3 mm
07:33 AM 31.6°F-0.2°C 28.8°F-1.8°C 89% Calm Calm -- 29.78 in1008.5 mb 0.00 in0.0 mm 0.00 in0.0 mm 0.01 in0.3 mm
07:35 AM 31.8°F-0.1°C 29.0°F-1.7°C 89% Calm Calm -- 29.78 in1008.5 mb 0.00 in0.0 mm 0.00 in0.0 mm 0.01 in0.3 mm
07:37 AM 32.0°F0.0°C 29.1°F-1.6°C 89% Calm Calm -- 29.78 in1008.5 mb 0.00 in0.0 mm 0.00 in0.0 mm 0.01 in0.3 mm
07:39 AM 32.2°F0.1°C 29.3°F-1.5°C 89% Calm Calm -- 29.77 in1008.1 mb 0.00 in0.0 mm 0.00 in0.0 mm 0.01 in0.3 mm
07:41 AM 32.4°F0.2°C 29.5°F-1.4°C 89% 3.8 mph SW6.1 kmh SW 4.5 mph7.2 kmh 29.78 in1008.5 mb 0.00 in0.0 mm 0.00 in0.0 mm 0.01 in0.3 mm
07:43 AM 32.5°F0.3°C 29.7°F-1.3°C 89% 3.1 mph SW5.0 kmh SW 5.4 mph8.7 kmh 29.77 in1008.1 mb 0.00 in0.0 mm 0.00 in0.0 mm 0.01 in0.3 mm
07:45 AM 32.5°F0.3°C 29.7°F-1.3°C 89% 6.9 mph E11.1 kmh E 7.6 mph12.2 kmh 29.78 in1008.5 mb 0.00 in0.0 mm 0.00 in0.0 mm 0.01 in0.3 mm
07:47 AM 32.9°F0.5°C 30.0°F-1.1°C 89% 7.6 mph E12.2 kmh E 8.3 mph13.4 kmh 29.78 in1008.5 mb 0.00 in0.0 mm 0.00 in0.0 mm 0.01 in0.3 mm
07:49 AM 33.1°F0.6°C 30.5°F-0.8°C 90% 7.6 mph E12.2 kmh E 8.3 mph13.4 kmh 29.78 in1008.5 mb 0.00 in0.0 mm 0.00 in0.0 mm 0.01 in0.3 mm
07:51 AM 33.3°F0.7°C 30.7°F-0.7°C 90% 8.3 mph E13.4 kmh E 9.2 mph14.8 kmh 29.78 in1008.5 mb 0.00 in0.0 mm 0.00 in0.0 mm 0.01 in0.3 mm
07:53 AM 33.4°F0.8°C 30.8°F-0.7°C 90% 6.9 mph E11.1 kmh E 7.6 mph12.2 kmh 29.78 in1008.5 mb 0.00 in0.0 mm 0.00 in0.0 mm 0.01 in0.3 mm
07:55 AM 33.6°F0.9°C 31.0°F-0.6°C 90% 8.3 mph E13.4 kmh E 9.2 mph14.8 kmh 29.78 in1008.5 mb 0.00 in0.0 mm 0.00 in0.0 mm 0.01 in0.3 mm
07:57 AM 33.8°F1.0°C 31.2°F-0.4°C 90% 8.3 mph E13.4 kmh E 9.8 mph15.8 kmh 29.78 in1008.5 mb 0.00 in0.0 mm 0.00 in0.0 mm 0.01 in0.3 mm
07:59 AM 33.8°F1.0°C 31.2°F-0.4°C 90% 8.3 mph E13.4 kmh E 9.2 mph14.8 kmh 29.78 in1008.5 mb 0.00 in0.0 mm 0.00 in0.0 mm 0.01 in0.3 mm
08:01 AM 33.8°F1.0°C 31.2°F-0.4°C 90% 8.3 mph E13.4 kmh E 9.2 mph14.8 kmh 29.78 in1008.5 mb 0.00 in0.0 mm 0.00 in0.0 mm 0.01 in0.3 mm
08:04 AM 33.8°F1.0°C 31.2°F-0.4°C 90% 8.3 mph E13.4 kmh E 9.2 mph14.8 kmh 29.78 in1008.5 mb 0.00 in0.0 mm 0.00 in0.0 mm 0.01 in0.3 mm
08:06 AM 33.8°F1.0°C 31.2°F-0.4°C 90% 8.3 mph E13.4 kmh E 9.2 mph14.8 kmh 29.78 in1008.5 mb 0.00 in0.0 mm 0.00 in0.0 mm 0.01 in0.3 mm
08:08 AM 34.2°F1.2°C 31.5°F-0.3°C 90% 6.0 mph E9.7 kmh E 7.6 mph12.2 kmh 29.79 in1008.8 mb 0.00 in0.0 mm 0.00 in0.0 mm 0.01 in0.3 mm
08:09 AM 34.2°F1.2°C 31.5°F-0.3°C 90% 6.9 mph E11.1 kmh E 7.6 mph12.2 kmh 29.78 in1008.5 mb 0.00 in0.0 mm 0.00 in0.0 mm 0.01 in0.3 mm
08:11 AM 34.3°F1.3°C 31.7°F-0.2°C 90% 5.4 mph E8.7 kmh E 6.9 mph11.1 kmh 29.78 in1008.5 mb 0.00 in0.0 mm 0.00 in0.0 mm 0.01 in0.3 mm
08:14 AM 34.3°F1.3°C 31.7°F-0.2°C 90% 5.4 mph E8.7 kmh E 6.0 mph9.7 kmh 29.79 in1008.8 mb 0.00 in0.0 mm 0.00 in0.0 mm 0.01 in0.3 mm
08:16 AM 34.5°F1.4°C 31.9°F-0.1°C 90% 5.4 mph SE8.7 kmh SE 6.0 mph9.7 kmh 29.80 in1009.1 mb 0.00 in0.0 mm 0.00 in0.0 mm 0.01 in0.3 mm
08:18 AM 34.7°F1.5°C 32.1°F0.1°C 90% 3.1 mph S5.0 kmh S 3.8 mph6.1 kmh 29.80 in1009.1 mb 0.00 in0.0 mm 0.00 in0.0 mm 0.01 in0.3 mm
08:20 AM 34.7°F1.5°C 32.1°F0.1°C 90% 0.7 mph S1.1 kmh S 1.6 mph2.6 kmh 29.79 in1008.8 mb 0.00 in0.0 mm 0.00 in0.0 mm 0.01 in0.3 mm
08:22 AM 34.5°F1.4°C 31.9°F-0.1°C 90% 1.6 mph S2.6 kmh S 2.2 mph3.5 kmh 29.79 in1008.8 mb 0.00 in0.0 mm 0.00 in0.0 mm 0.01 in0.3 mm
08:24 AM 34.2°F1.2°C 31.5°F-0.3°C 90% Calm Calm 0.7 mph1.1 kmh 29.79 in1008.8 mb 0.00 in0.0 mm 0.00 in0.0 mm 0.01 in0.3 mm
08:26 AM 34.2°F1.2°C 31.5°F-0.3°C 90% 0.7 mph S1.1 kmh S 1.6 mph2.6 kmh 29.79 in1008.8 mb 0.00 in0.0 mm 0.00 in0.0 mm 0.01 in0.3 mm
08:28 AM 34.2°F1.2°C 31.5°F-0.3°C 90% 2.2 mph SSW3.5 kmh SSW 3.1 mph5.0 kmh 29.79 in1008.8 mb 0.00 in0.0 mm 0.00 in0.0 mm 0.01 in0.3 mm
08:30 AM 34.3°F1.3°C 31.7°F-0.2°C 90% 2.2 mph S3.5 kmh S 3.1 mph5.0 kmh 29.79 in1008.8 mb 0.00 in0.0 mm 0.00 in0.0 mm 0.01 in0.3 mm
08:32 AM 34.5°F1.4°C 31.9°F-0.1°C 90% 0.7 mph SSW1.1 kmh SSW 1.6 mph2.6 kmh 29.79 in1008.8 mb 0.00 in0.0 mm 0.00 in0.0 mm 0.01 in0.3 mm
08:34 AM 34.3°F1.3°C 31.7°F-0.2°C 90% Calm Calm 0.7 mph1.1 kmh 29.79 in1008.8 mb 0.00 in0.0 mm 0.00 in0.0 mm 0.01 in0.3 mm
08:36 AM 34.3°F1.3°C 31.7°F-0.2°C 90% Calm Calm -- 29.79 in1008.8 mb 0.00 in0.0 mm 0.00 in0.0 mm 0.01 in0.3 mm
08:38 AM 34.2°F1.2°C 31.5°F-0.3°C 90% Calm Calm -- 29.78 in1008.5 mb 0.00 in0.0 mm 0.00 in0.0 mm 0.01 in0.3 mm
08:40 AM 34.2°F1.2°C 31.5°F-0.3°C 90% Calm Calm -- 29.79 in1008.8 mb 0.00 in0.0 mm 0.00 in0.0 mm 0.01 in0.3 mm
08:42 AM 34.2°F1.2°C 31.5°F-0.3°C 90% Calm Calm -- 29.79 in1008.8 mb 0.00 in0.0 mm 0.00 in0.0 mm 0.01 in0.3 mm
08:44 AM 34.2°F1.2°C 31.5°F-0.3°C 90% Calm Calm -- 29.79 in1008.8 mb 0.00 in0.0 mm 0.00 in0.0 mm 0.01 in0.3 mm
08:46 AM 34.2°F1.2°C 31.5°F-0.3°C 90% Calm Calm -- 29.79 in1008.8 mb 0.00 in0.0 mm 0.00 in0.0 mm 0.01 in0.3 mm
08:48 AM 34.2°F1.2°C 31.5°F-0.3°C 90% Calm Calm -- 29.78 in1008.5 mb 0.00 in0.0 mm 0.00 in0.0 mm 0.01 in0.3 mm
08:51 AM 34.2°F1.2°C 31.5°F-0.3°C 90% 0.7 mph SE1.1 kmh SE 1.6 mph2.6 kmh 29.79 in1008.8 mb 0.00 in0.0 mm 0.00 in0.0 mm 0.01 in0.3 mm
08:52 AM 34.3°F1.3°C 31.7°F-0.2°C 90% 0.7 mph SE1.1 kmh SE 1.6 mph2.6 kmh 29.79 in1008.8 mb 0.00 in0.0 mm 0.00 in0.0 mm 0.01 in0.3 mm
08:54 AM 34.3°F1.3°C 31.7°F-0.2°C 90% 0.7 mph SE1.1 kmh SE 1.6 mph2.6 kmh 29.79 in1008.8 mb 0.00 in0.0 mm 0.00 in0.0 mm 0.01 in0.3 mm
08:56 AM 34.3°F1.3°C 31.7°F-0.2°C 90% 0.7 mph SE1.1 kmh SE 1.6 mph2.6 kmh 29.79 in1008.8 mb 0.00 in0.0 mm 0.00 in0.0 mm 0.01 in0.3 mm
08:58 AM 34.5°F1.4°C 31.9°F-0.1°C 90% 1.6 mph S2.6 kmh S 2.2 mph3.5 kmh 29.79 in1008.8 mb 0.00 in0.0 mm 0.00 in0.0 mm 0.01 in0.3 mm
09:00 AM 34.5°F1.4°C 31.9°F-0.1°C 90% 0.7 mph S1.1 kmh S 1.6 mph2.6 kmh 29.79 in1008.8 mb 0.00 in0.0 mm 0.00 in0.0 mm 0.01 in0.3 mm
09:02 AM 34.5°F1.4°C 31.9°F-0.1°C 90% 1.6 mph S2.6 kmh S 2.2 mph3.5 kmh 29.80 in1009.1 mb 0.00 in0.0 mm 0.00 in0.0 mm 0.01 in0.3 mm
09:04 AM 34.3°F1.3°C 31.7°F-0.2°C 90% 0.7 mph S1.1 kmh S 1.6 mph2.6 kmh 29.81 in1009.5 mb 0.00 in0.0 mm 0.00 in0.0 mm 0.01 in0.3 mm
09:06 AM 34.3°F1.3°C 31.7°F-0.2°C 90% Calm Calm 0.7 mph1.1 kmh 29.81 in1009.5 mb 0.00 in0.0 mm 0.00 in0.0 mm 0.01 in0.3 mm
09:08 AM 34.3°F1.3°C 31.7°F-0.2°C 90% Calm Calm -- 29.80 in1009.1 mb 0.00 in0.0 mm 0.00 in0.0 mm 0.01 in0.3 mm
09:10 AM 34.3°F1.3°C 31.7°F-0.2°C 90% Calm Calm -- 29.80 in1009.1 mb 0.00 in0.0 mm 0.00 in0.0 mm 0.01 in0.3 mm
09:12 AM 34.5°F1.4°C 31.9°F-0.1°C 90% Calm Calm -- 29.80 in1009.1 mb 0.00 in0.0 mm 0.00 in0.0 mm 0.01 in0.3 mm
09:14 AM 34.5°F1.4°C 31.9°F-0.1°C 90% 0.7 mph S1.1 kmh S 1.6 mph2.6 kmh 29.81 in1009.5 mb 0.00 in0.0 mm 0.00 in0.0 mm 0.01 in0.3 mm
09:16 AM 34.5°F1.4°C 31.9°F-0.1°C 90% Calm Calm -- 29.81 in1009.5 mb 0.00 in0.0 mm 0.00 in0.0 mm 0.01 in0.3 mm
09:18 AM 34.7°F1.5°C 32.1°F0.1°C 90% 0.7 mph S1.1 kmh S 1.6 mph2.6 kmh 29.81 in1009.5 mb 0.00 in0.0 mm 0.00 in0.0 mm 0.01 in0.3 mm
09:20 AM 34.9°F1.6°C 32.3°F0.2°C 90% 0.7 mph S1.1 kmh S 1.6 mph2.6 kmh 29.81 in1009.5 mb 0.00 in0.0 mm 0.00 in0.0 mm 0.01 in0.3 mm
09:23 AM 35.4°F1.9°C 32.8°F0.4°C 90% Calm Calm 0.7 mph1.1 kmh 29.81 in1009.5 mb 0.00 in0.0 mm 0.00 in0.0 mm 0.01 in0.3 mm
09:24 AM 35.8°F2.1°C 33.1°F0.6°C 90% Calm Calm 1.6 mph2.6 kmh 29.81 in1009.5 mb 0.00 in0.0 mm 0.00 in0.0 mm 0.01 in0.3 mm
09:26 AM 36.5°F2.5°C 33.9°F1.1°C 90% 0.7 mph S1.1 kmh S 1.6 mph2.6 kmh 29.81 in1009.5 mb 0.00 in0.0 mm 0.00 in0.0 mm 0.01 in0.3 mm
09:28 AM 36.9°F2.7°C 34.5°F1.4°C 91% 0.7 mph S1.1 kmh S 1.6 mph2.6 kmh 29.81 in1009.5 mb 0.00 in0.0 mm 0.00 in0.0 mm 0.01 in0.3 mm
09:30 AM 37.2°F2.9°C 34.8°F1.6°C 91% 1.6 mph S2.6 kmh S 3.1 mph5.0 kmh 29.81 in1009.5 mb 0.00 in0.0 mm 0.00 in0.0 mm 0.01 in0.3 mm
09:32 AM 37.4°F3.0°C 35.0°F1.7°C 91% 1.6 mph S2.6 kmh S 2.2 mph3.5 kmh 29.81 in1009.5 mb 0.00 in0.0 mm 0.00 in0.0 mm 0.01 in0.3 mm
09:34 AM 37.4°F3.0°C 35.0°F1.7°C 91% 4.5 mph SE7.2 kmh SE 5.4 mph8.7 kmh 29.81 in1009.5 mb 0.01 in0.3 mm 0.35 in8.9 mm 0.01 in0.3 mm
09:36 AM 37.0°F2.8°C 34.7°F1.5°C 91% 3.8 mph S6.1 kmh S 6.0 mph9.7 kmh 29.81 in1009.5 mb 0.01 in0.3 mm 0.00 in0.0 mm 0.01 in0.3 mm
09:38 AM 36.9°F2.7°C 34.5°F1.4°C 91% 1.6 mph S2.6 kmh S 3.1 mph5.0 kmh 29.80 in1009.1 mb 0.01 in0.3 mm 0.00 in0.0 mm 0.01 in0.3 mm
09:40 AM 36.7°F2.6°C 34.3°F1.3°C 91% 2.2 mph S3.5 kmh S 3.1 mph5.0 kmh 29.81 in1009.5 mb 0.01 in0.3 mm 0.00 in0.0 mm 0.01 in0.3 mm
09:42 AM 36.5°F2.5°C 33.9°F1.1°C 90% 3.1 mph S5.0 kmh S 3.8 mph6.1 kmh 29.81 in1009.5 mb 0.01 in0.3 mm 0.00 in0.0 mm 0.01 in0.3 mm
09:44 AM 36.5°F2.5°C 33.9°F1.1°C 90% 1.6 mph S2.6 kmh S 2.2 mph3.5 kmh 29.81 in1009.5 mb 0.01 in0.3 mm 0.00 in0.0 mm 0.01 in0.3 mm
09:46 AM 36.3°F2.4°C 33.7°F0.9°C 90% 3.1 mph SE5.0 kmh SE 3.8 mph6.1 kmh 29.81 in1009.5 mb 0.01 in0.3 mm 0.00 in0.0 mm 0.01 in0.3 mm
09:48 AM 36.3°F2.4°C 33.7°F0.9°C 90% 4.5 mph S7.2 kmh S 6.0 mph9.7 kmh 29.80 in1009.1 mb 0.01 in0.3 mm 0.00 in0.0 mm 0.01 in0.3 mm
09:50 AM 36.3°F2.4°C 33.7°F0.9°C 90% 1.6 mph S2.6 kmh S 3.1 mph5.0 kmh 29.80 in1009.1 mb 0.01 in0.3 mm 0.00 in0.0 mm 0.01 in0.3 mm
09:52 AM 36.3°F2.4°C 33.7°F0.9°C 90% 2.2 mph S3.5 kmh S 3.1 mph5.0 kmh 29.81 in1009.5 mb 0.01 in0.3 mm 0.00 in0.0 mm 0.01 in0.3 mm
09:54 AM 36.5°F2.5°C 33.9°F1.1°C 90% 3.8 mph S6.1 kmh S 4.5 mph7.2 kmh 29.82 in1009.8 mb 0.01 in0.3 mm 0.00 in0.0 mm 0.01 in0.3 mm
09:56 AM 36.5°F2.5°C 33.9°F1.1°C 90% 2.2 mph S3.5 kmh S 3.8 mph6.1 kmh 29.81 in1009.5 mb 0.01 in0.3 mm 0.00 in0.0 mm 0.01 in0.3 mm
09:58 AM 36.7°F2.6°C 34.0°F1.1°C 90% 0.7 mph SE1.1 kmh SE 1.6 mph2.6 kmh 29.80 in1009.1 mb 0.01 in0.3 mm 0.00 in0.0 mm 0.01 in0.3 mm
10:00 AM 36.7°F2.6°C 34.0°F1.1°C 90% 0.7 mph S1.1 kmh S 2.2 mph3.5 kmh 29.81 in1009.5 mb 0.01 in0.3 mm 0.00 in0.0 mm 0.01 in0.3 mm
10:02 AM 36.7°F2.6°C 34.0°F1.1°C 90% 0.7 mph S1.1 kmh S 2.2 mph3.5 kmh 29.81 in1009.5 mb 0.01 in0.3 mm 0.00 in0.0 mm 0.01 in0.3 mm
10:04 AM 36.7°F2.6°C 34.0°F1.1°C 90% 0.7 mph S1.1 kmh S 2.2 mph3.5 kmh 29.81 in1009.5 mb 0.01 in0.3 mm 0.00 in0.0 mm 0.01 in0.3 mm
10:06 AM 36.9°F2.7°C 34.2°F1.2°C 90% 3.1 mph SE5.0 kmh SE 3.8 mph6.1 kmh 29.81 in1009.5 mb 0.01 in0.3 mm 0.00 in0.0 mm 0.01 in0.3 mm
10:08 AM 36.9°F2.7°C 34.2°F1.2°C 90% 1.6 mph SE2.6 kmh SE 3.1 mph5.0 kmh 29.82 in1009.8 mb 0.01 in0.3 mm 0.00 in0.0 mm 0.01 in0.3 mm
10:10 AM 36.7°F2.6°C 34.0°F1.1°C 90% 3.8 mph ENE6.1 kmh ENE 5.4 mph8.7 kmh 29.81 in1009.5 mb 0.01 in0.3 mm 0.00 in0.0 mm 0.01 in0.3 mm
10:12 AM 36.7°F2.6°C 34.0°F1.1°C 90% 4.5 mph ENE7.2 kmh ENE 5.4 mph8.7 kmh 29.81 in1009.5 mb 0.01 in0.3 mm 0.00 in0.0 mm 0.01 in0.3 mm
10:14 AM 36.5°F2.5°C 33.9°F1.1°C 90% 5.4 mph E8.7 kmh E 6.0 mph9.7 kmh 29.81 in1009.5 mb 0.01 in0.3 mm 0.00 in0.0 mm 0.01 in0.3 mm
10:16 AM 36.5°F2.5°C 33.9°F1.1°C 90% 5.4 mph E8.7 kmh E 6.0 mph9.7 kmh 29.81 in1009.5 mb 0.01 in0.3 mm 0.00 in0.0 mm 0.01 in0.3 mm
10:18 AM 36.3°F2.4°C 33.7°F0.9°C 90% 4.5 mph E7.2 kmh E 5.4 mph8.7 kmh 29.80 in1009.1 mb 0.01 in0.3 mm 0.00 in0.0 mm 0.01 in0.3 mm
10:20 AM 36.3°F2.4°C 33.7°F0.9°C 90% 4.5 mph E7.2 kmh E 5.4 mph8.7 kmh 29.80 in1009.1 mb 0.01 in0.3 mm 0.00 in0.0 mm 0.01 in0.3 mm
10:22 AM 36.3°F2.4°C 33.7°F0.9°C 90% 4.5 mph E7.2 kmh E 5.4 mph8.7 kmh 29.80 in1009.1 mb 0.01 in0.3 mm 0.00 in0.0 mm 0.01 in0.3 mm
10:24 AM 36.3°F2.4°C 33.7°F0.9°C 90% 4.5 mph E7.2 kmh E 5.4 mph8.7 kmh 29.81 in1009.5 mb 0.01 in0.3 mm 0.00 in0.0 mm 0.01 in0.3 mm
10:26 AM 36.3°F2.4°C 33.7°F0.9°C 90% 4.5 mph E7.2 kmh E 5.4 mph8.7 kmh 29.80 in1009.1 mb 0.01 in0.3 mm 0.00 in0.0 mm 0.01 in0.3 mm
10:28 AM 36.3°F2.4°C 33.7°F0.9°C 90% 5.4 mph NE8.7 kmh NE 6.0 mph9.7 kmh 29.81 in1009.5 mb 0.01 in0.3 mm 0.00 in0.0 mm 0.01 in0.3 mm
10:30 AM 36.3°F2.4°C 33.7°F0.9°C 90% 6.9 mph NE11.1 kmh NE 7.6 mph12.2 kmh 29.81 in1009.5 mb 0.01 in0.3 mm 0.00 in0.0 mm 0.01 in0.3 mm
10:32 AM 36.5°F2.5°C 33.9°F1.1°C 90% 6.0 mph NE9.7 kmh NE 6.9 mph11.1 kmh 29.82 in1009.8 mb 0.00 in0.0 mm 0.00 in0.0 mm 0.01 in0.3 mm
10:34 AM 36.5°F2.5°C 33.9°F1.1°C 90% 5.4 mph E8.7 kmh E 6.0 mph9.7 kmh 29.81 in1009.5 mb 0.00 in0.0 mm 0.00 in0.0 mm 0.01 in0.3 mm
10:36 AM 36.5°F2.5°C 33.9°F1.1°C 90% 4.5 mph NE7.2 kmh NE 5.4 mph8.7 kmh 29.82 in1009.8 mb 0.00 in0.0 mm 0.00 in0.0 mm 0.01 in0.3 mm
10:38 AM 36.5°F2.5°C 33.9°F1.1°C 90% 5.4 mph E8.7 kmh E 6.0 mph9.7 kmh 29.81 in1009.5 mb 0.00 in0.0 mm 0.00 in0.0 mm 0.01 in0.3 mm
10:40 AM 36.5°F2.5°C 33.9°F1.1°C 90% 4.5 mph E7.2 kmh E 6.0 mph9.7 kmh 29.81 in1009.5 mb 0.00 in0.0 mm 0.00 in0.0 mm 0.01 in0.3 mm
10:42 AM 36.5°F2.5°C 33.9°F1.1°C 90% 6.0 mph NE9.7 kmh NE 7.6 mph12.2 kmh 29.81 in1009.5 mb 0.00 in0.0 mm 0.00 in0.0 mm 0.01 in0.3 mm
10:44 AM 36.5°F2.5°C 33.9°F1.1°C 90% 6.0 mph NE9.7 kmh NE 6.9 mph11.1 kmh 29.81 in1009.5 mb 0.00 in0.0 mm 0.00 in0.0 mm 0.01 in0.3 mm
10:46 AM 36.5°F2.5°C 33.9°F1.1°C 90% 4.5 mph NE7.2 kmh NE 5.4 mph8.7 kmh 29.82 in1009.8 mb 0.00 in0.0 mm 0.00 in0.0 mm 0.01 in0.3 mm
10:48 AM 36.5°F2.5°C 33.9°F1.1°C 90% 3.8 mph E6.1 kmh E 5.4 mph8.7 kmh 29.82 in1009.8 mb 0.00 in0.0 mm 0.00 in0.0 mm 0.01 in0.3 mm
10:50 AM 36.5°F2.5°C 33.9°F1.1°C 90% 3.8 mph NE6.1 kmh NE 4.5 mph7.2 kmh 29.82 in1009.8 mb 0.00 in0.0 mm 0.00 in0.0 mm 0.01 in0.3 mm
10:52 AM 36.5°F2.5°C 33.9°F1.1°C 90% 4.5 mph NE7.2 kmh NE 5.4 mph8.7 kmh 29.82 in1009.8 mb 0.00 in0.0 mm 0.00 in0.0 mm 0.01 in0.3 mm
10:54 AM 36.5°F2.5°C 33.9°F1.1°C 90% 3.1 mph E5.0 kmh E 3.8 mph6.1 kmh 29.82 in1009.8 mb 0.01 in0.3 mm 0.35 in8.9 mm 0.02 in0.5 mm
10:56 AM 36.3°F2.4°C 33.7°F0.9°C 90% 3.1 mph NE5.0 kmh NE 3.1 mph5.0 kmh 29.82 in1009.8 mb 0.01 in0.3 mm 0.00 in0.0 mm 0.02 in0.5 mm
10:58 AM 36.3°F2.4°C 33.7°F0.9°C 90% 3.8 mph E6.1 kmh E 4.5 mph7.2 kmh 29.82 in1009.8 mb 0.01 in0.3 mm 0.00 in0.0 mm 0.02 in0.5 mm
11:00 AM 36.3°F2.4°C 33.7°F0.9°C 90% 3.8 mph E6.1 kmh E 4.5 mph7.2 kmh 29.82 in1009.8 mb 0.01 in0.3 mm 0.00 in0.0 mm 0.02 in0.5 mm
11:02 AM 36.1°F2.3°C 33.5°F0.8°C 90% 3.1 mph NE5.0 kmh NE 3.8 mph6.1 kmh 29.82 in1009.8 mb 0.01 in0.3 mm 0.00 in0.0 mm 0.02 in0.5 mm
11:04 AM 36.1°F2.3°C 33.5°F0.8°C 90% 2.2 mph E3.5 kmh E 3.1 mph5.0 kmh 29.82 in1009.8 mb 0.01 in0.3 mm 0.00 in0.0 mm 0.02 in0.5 mm
11:06 AM 36.3°F2.4°C 33.7°F0.9°C 90% 3.8 mph NE6.1 kmh NE 4.5 mph7.2 kmh 29.82 in1009.8 mb 0.01 in0.3 mm 0.00 in0.0 mm 0.02 in0.5 mm
11:08 AM 36.3°F2.4°C 33.7°F0.9°C 90% 3.8 mph NE6.1 kmh NE 4.5 mph7.2 kmh 29.82 in1009.8 mb 0.02 in0.5 mm 0.35 in8.9 mm 0.04 in1.0 mm
11:10 AM 36.7°F2.6°C 34.0°F1.1°C 90% 4.5 mph E7.2 kmh E 5.4 mph8.7 kmh 29.82 in1009.8 mb 0.02 in0.5 mm 0.00 in0.0 mm 0.04 in1.0 mm
11:12 AM 36.7°F2.6°C 34.0°F1.1°C 90% 3.8 mph E6.1 kmh E 4.5 mph7.2 kmh 29.82 in1009.8 mb 0.02 in0.5 mm 0.00 in0.0 mm 0.04 in1.0 mm
11:14 AM 36.9°F2.7°C 34.2°F1.2°C 90% 6.0 mph E9.7 kmh E 6.9 mph11.1 kmh 29.82 in1009.8 mb 0.02 in0.5 mm 0.00 in0.0 mm 0.04 in1.0 mm
11:16 AM 37.0°F2.8°C 34.4°F1.3°C 90% 5.4 mph E8.7 kmh E 6.0 mph9.7 kmh 29.82 in1009.8 mb 0.02 in0.5 mm 0.00 in0.0 mm 0.04 in1.0 mm
11:18 AM 37.2°F2.9°C 34.6°F1.4°C 90% 5.4 mph NE8.7 kmh NE 6.0 mph9.7 kmh 29.82 in1009.8 mb 0.02 in0.5 mm 0.00 in0.0 mm 0.04 in1.0 mm
11:20 AM 37.2°F2.9°C 34.6°F1.4°C 90% 4.5 mph NE7.2 kmh NE 5.4 mph8.7 kmh 29.81 in1009.5 mb 0.02 in0.5 mm 0.00 in0.0 mm 0.04 in1.0 mm
11:22 AM 37.4°F3.0°C 35.0°F1.7°C 91% 4.5 mph NE7.2 kmh NE 5.4 mph8.7 kmh 29.82 in1009.8 mb 0.02 in0.5 mm 0.00 in0.0 mm 0.04 in1.0 mm
11:24 AM 37.6°F3.1°C 35.2°F1.8°C 91% 6.0 mph NE9.7 kmh NE 6.9 mph11.1 kmh 29.82 in1009.8 mb 0.02 in0.5 mm 0.00 in0.0 mm 0.04 in1.0 mm
11:26 AM 37.8°F3.2°C 35.4°F1.9°C 91% 3.8 mph E6.1 kmh E 4.5 mph7.2 kmh 29.82 in1009.8 mb 0.02 in0.5 mm 0.00 in0.0 mm 0.04 in1.0 mm
11:28 AM 38.1°F3.4°C 35.7°F2.1°C 91% 3.1 mph NE5.0 kmh NE 3.8 mph6.1 kmh 29.82 in1009.8 mb 0.02 in0.5 mm 0.00 in0.0 mm 0.04 in1.0 mm
11:30 AM 38.7°F3.7°C 36.3°F2.4°C 91% 3.8 mph NE6.1 kmh NE 4.5 mph7.2 kmh 29.82 in1009.8 mb 0.02 in0.5 mm 0.00 in0.0 mm 0.04 in1.0 mm
11:32 AM 38.8°F3.8°C 36.4°F2.4°C 91% 4.5 mph NE7.2 kmh NE 5.4 mph8.7 kmh 29.82 in1009.8 mb 0.02 in0.5 mm 0.00 in0.0 mm 0.04 in1.0 mm
11:34 AM 39.2°F4.0°C 36.8°F2.7°C 91% 5.4 mph E8.7 kmh E 6.0 mph9.7 kmh 29.82 in1009.8 mb 0.02 in0.5 mm 0.00 in0.0 mm 0.04 in1.0 mm
11:36 AM 39.4°F4.1°C 37.0°F2.8°C 91% 6.0 mph E9.7 kmh E 6.9 mph11.1 kmh 29.82 in1009.8 mb 0.02 in0.5 mm 0.00 in0.0 mm 0.04 in1.0 mm
11:38 AM 39.4°F4.1°C 37.0°F2.8°C 91% 6.9 mph E11.1 kmh E 8.3 mph13.4 kmh 29.82 in1009.8 mb 0.02 in0.5 mm 0.00 in0.0 mm 0.04 in1.0 mm
11:40 AM 39.2°F4.0°C 36.8°F2.7°C 91% 3.8 mph E6.1 kmh E 4.5 mph7.2 kmh 29.82 in1009.8 mb 0.02 in0.5 mm 0.00 in0.0 mm 0.04 in1.0 mm
11:42 AM 39.2°F4.0°C 36.8°F2.7°C 91% 3.1 mph E5.0 kmh E 3.8 mph6.1 kmh 29.82 in1009.8 mb 0.02 in0.5 mm 0.00 in0.0 mm 0.04 in1.0 mm
11:44 AM 39.2°F4.0°C 36.8°F2.7°C 91% 3.8 mph E6.1 kmh E 4.5 mph7.2 kmh 29.82 in1009.8 mb 0.02 in0.5 mm 0.00 in0.0 mm 0.04 in1.0 mm
11:46 AM 39.2°F4.0°C 36.8°F2.7°C 91% 3.1 mph E5.0 kmh E 3.8 mph6.1 kmh 29.82 in1009.8 mb 0.02 in0.5 mm 0.00 in0.0 mm 0.04 in1.0 mm
11:48 AM 39.2°F4.0°C 36.8°F2.7°C 91% 2.2 mph E3.5 kmh E 3.1 mph5.0 kmh 29.82 in1009.8 mb 0.02 in0.5 mm 0.00 in0.0 mm 0.04 in1.0 mm
11:50 AM 39.2°F4.0°C 36.8°F2.7°C 91% 3.8 mph E6.1 kmh E 4.5 mph7.2 kmh 29.82 in1009.8 mb 0.02 in0.5 mm 0.00 in0.0 mm 0.04 in1.0 mm
11:52 AM 39.2°F4.0°C 36.8°F2.7°C 91% 3.8 mph E6.1 kmh E 4.5 mph7.2 kmh 29.82 in1009.8 mb 0.02 in0.5 mm 0.00 in0.0 mm 0.04 in1.0 mm
11:54 AM 39.4°F4.1°C 37.0°F2.8°C 91% 4.5 mph E7.2 kmh E 5.4 mph8.7 kmh 29.82 in1009.8 mb 0.01 in0.3 mm 0.00 in0.0 mm 0.04 in1.0 mm
11:56 AM 39.6°F4.2°C 37.2°F2.9°C 91% 5.4 mph E8.7 kmh E 6.0 mph9.7 kmh 29.82 in1009.8 mb 0.01 in0.3 mm 0.00 in0.0 mm 0.04 in1.0 mm
11:58 AM 39.7°F4.3°C 37.3°F2.9°C 91% 5.4 mph E8.7 kmh E 6.0 mph9.7 kmh 29.82 in1009.8 mb 0.01 in0.3 mm 0.00 in0.0 mm 0.04 in1.0 mm
12:00 PM 39.7°F4.3°C 37.3°F2.9°C 91% 3.8 mph E6.1 kmh E 4.5 mph7.2 kmh 29.82 in1009.8 mb 0.01 in0.3 mm 0.00 in0.0 mm 0.04 in1.0 mm
12:02 PM 39.7°F4.3°C 37.3°F2.9°C 91% 3.8 mph E6.1 kmh E 4.5 mph7.2 kmh 29.82 in1009.8 mb 0.01 in0.3 mm 0.00 in0.0 mm 0.04 in1.0 mm
12:04 PM 39.7°F4.3°C 37.3°F2.9°C 91% 3.8 mph E6.1 kmh E 4.5 mph7.2 kmh 29.82 in1009.8 mb 0.01 in0.3 mm 0.00 in0.0 mm 0.04 in1.0 mm
12:06 PM 39.7°F4.3°C 37.3°F2.9°C 91% 3.8 mph E6.1 kmh E 4.5 mph7.2 kmh 29.82 in1009.8 mb 0.01 in0.3 mm 0.00 in0.0 mm 0.04 in1.0 mm
12:08 PM 39.4°F4.1°C 37.0°F2.8°C 91% 5.4 mph E8.7 kmh E 6.0 mph9.7 kmh 29.82 in1009.8 mb 0.00 in0.0 mm 0.00 in0.0 mm 0.04 in1.0 mm
12:10 PM 39.2°F4.0°C 36.8°F2.7°C 91% 6.9 mph E11.1 kmh E 7.6 mph12.2 kmh 29.82 in1009.8 mb 0.00 in0.0 mm 0.00 in0.0 mm 0.04 in1.0 mm
12:12 PM 39.2°F4.0°C 36.8°F2.7°C 91% 6.0 mph E9.7 kmh E 6.9 mph11.1 kmh 29.82 in1009.8 mb 0.00 in0.0 mm 0.00 in0.0 mm 0.04 in1.0 mm
12:14 PM 39.2°F4.0°C 36.8°F2.7°C 91% 6.9 mph E11.1 kmh E 7.6 mph12.2 kmh 29.82 in1009.8 mb 0.00 in0.0 mm 0.00 in0.0 mm 0.04 in1.0 mm
12:16 PM 39.2°F4.0°C 36.8°F2.7°C 91% 6.9 mph E11.1 kmh E 7.6 mph12.2 kmh 29.82 in1009.8 mb 0.00 in0.0 mm 0.00 in0.0 mm 0.04 in1.0 mm
12:18 PM 39.2°F4.0°C 36.8°F2.7°C 91% 7.6 mph NE12.2 kmh NE 8.3 mph13.4 kmh 29.81 in1009.5 mb 0.00 in0.0 mm 0.00 in0.0 mm 0.04 in1.0 mm
12:20 PM 39.4°F4.1°C 37.0°F2.8°C 91% 6.9 mph E11.1 kmh E 7.6 mph12.2 kmh 29.81 in1009.5 mb 0.00 in0.0 mm 0.00 in0.0 mm 0.04 in1.0 mm
12:22 PM 39.4°F4.1°C 37.0°F2.8°C 91% 5.4 mph NE8.7 kmh NE 6.0 mph9.7 kmh 29.81 in1009.5 mb 0.00 in0.0 mm 0.00 in0.0 mm 0.04 in1.0 mm
12:24 PM 39.4°F4.1°C 37.0°F2.8°C 91% 6.0 mph NE9.7 kmh NE 6.9 mph11.1 kmh 29.81 in1009.5 mb 0.00 in0.0 mm 0.00 in0.0 mm 0.04 in1.0 mm
12:26 PM 39.4°F4.1°C 37.0°F2.8°C 91% 6.9 mph E11.1 kmh E 7.6 mph12.2 kmh 29.81 in1009.5 mb 0.00 in0.0 mm 0.00 in0.0 mm 0.04 in1.0 mm
12:29 PM 39.4°F4.1°C 37.0°F2.8°C 91% 6.9 mph E11.1 kmh E 7.6 mph12.2 kmh 29.81 in1009.5 mb 0.00 in0.0 mm 0.00 in0.0 mm 0.04 in1.0 mm
12:31 PM 39.6°F4.2°C 37.2°F2.9°C 91% 6.9 mph E11.1 kmh E 7.6 mph12.2 kmh 29.81 in1009.5 mb 0.00 in0.0 mm 0.00 in0.0 mm 0.04 in1.0 mm
12:33 PM 39.6°F4.2°C 37.2°F2.9°C 91% 7.6 mph E12.2 kmh E 9.2 mph14.8 kmh 29.81 in1009.5 mb 0.00 in0.0 mm 0.00 in0.0 mm 0.04 in1.0 mm
12:35 PM 39.6°F4.2°C 37.2°F2.9°C 91% 9.2 mph E14.8 kmh E 9.8 mph15.8 kmh 29.81 in1009.5 mb 0.00 in0.0 mm 0.00 in0.0 mm 0.04 in1.0 mm
12:37 PM 39.7°F4.3°C 37.3°F2.9°C 91% 9.8 mph E15.8 kmh E 10.7 mph17.2 kmh 29.81 in1009.5 mb 0.00 in0.0 mm 0.00 in0.0 mm 0.04 in1.0 mm
12:39 PM 39.9°F4.4°C 37.5°F3.1°C 91% 13.0 mph E20.9 kmh E 14.5 mph23.3 kmh 29.81 in1009.5 mb 0.00 in0.0 mm 0.00 in0.0 mm 0.04 in1.0 mm
12:41 PM 40.1°F4.5°C 37.7°F3.2°C 91% 11.4 mph E18.3 kmh E 12.1 mph19.5 kmh 29.81 in1009.5 mb 0.00 in0.0 mm 0.00 in0.0 mm 0.04 in1.0 mm
12:43 PM 40.3°F4.6°C 37.9°F3.3°C 91% 9.2 mph E14.8 kmh E 9.8 mph15.8 kmh 29.80 in1009.1 mb 0.00 in0.0 mm 0.00 in0.0 mm 0.04 in1.0 mm
12:45 PM 40.5°F4.7°C 38.0°F3.3°C 91% 9.2 mph E14.8 kmh E 10.7 mph17.2 kmh 29.81 in1009.5 mb 0.00 in0.0 mm 0.00 in0.0 mm 0.04 in1.0 mm
12:47 PM 40.6°F4.8°C 38.2°F3.4°C 91% 8.3 mph E13.4 kmh E 9.2 mph14.8 kmh 29.81 in1009.5 mb 0.00 in0.0 mm 0.00 in0.0 mm 0.04 in1.0 mm
12:49 PM 40.8°F4.9°C 38.4°F3.6°C 91% 6.9 mph E11.1 kmh E 8.3 mph13.4 kmh 29.81 in1009.5 mb 0.00 in0.0 mm 0.00 in0.0 mm 0.04 in1.0 mm
12:51 PM 40.8°F4.9°C 38.4°F3.6°C 91% 7.6 mph E12.2 kmh E 9.2 mph14.8 kmh 29.81 in1009.5 mb 0.00 in0.0 mm 0.00 in0.0 mm 0.04 in1.0 mm
12:53 PM 40.6°F4.8°C 38.2°F3.4°C 91% 6.9 mph E11.1 kmh E 8.3 mph13.4 kmh 29.81 in1009.5 mb 0.00 in0.0 mm 0.00 in0.0 mm 0.04 in1.0 mm
12:55 PM 40.6°F4.8°C 38.2°F3.4°C 91% 6.0 mph E9.7 kmh E 8.3 mph13.4 kmh 29.80 in1009.1 mb 0.00 in0.0 mm 0.00 in0.0 mm 0.04 in1.0 mm
12:57 PM 40.8°F4.9°C 38.4°F3.6°C 91% 9.2 mph E14.8 kmh E 10.7 mph17.2 kmh 29.80 in1009.1 mb 0.00 in0.0 mm 0.00 in0.0 mm 0.04 in1.0 mm
12:59 PM 40.8°F4.9°C 38.4°F3.6°C 91% 10.7 mph E17.2 kmh E 11.4 mph18.3 kmh 29.81 in1009.5 mb 0.00 in0.0 mm 0.00 in0.0 mm 0.04 in1.0 mm
01:01 PM 40.6°F4.8°C 38.2°F3.4°C 91% 9.8 mph E15.8 kmh E 10.7 mph17.2 kmh 29.80 in1009.1 mb 0.00 in0.0 mm 0.00 in0.0 mm 0.04 in1.0 mm
01:03 PM 40.6°F4.8°C 38.2°F3.4°C 91% 8.3 mph E13.4 kmh E 9.8 mph15.8 kmh 29.81 in1009.5 mb 0.00 in0.0 mm 0.00 in0.0 mm 0.04 in1.0 mm
01:07 PM 40.6°F4.8°C 38.2°F3.4°C 91% 6.9 mph NE11.1 kmh NE 7.6 mph12.2 kmh 29.81 in1009.5 mb 0.00 in0.0 mm 0.00 in0.0 mm 0.04 in1.0 mm
01:09 PM 40.6°F4.8°C 37.9°F3.3°C 90% 6.9 mph E11.1 kmh E 7.6 mph12.2 kmh 29.81 in1009.5 mb 0.00 in0.0 mm 0.00 in0.0 mm 0.04 in1.0 mm
01:11 PM 40.6°F4.8°C 37.9°F3.3°C 90% 6.9 mph NE11.1 kmh NE 7.6 mph12.2 kmh 29.80 in1009.1 mb 0.00 in0.0 mm 0.00 in0.0 mm 0.04 in1.0 mm
01:13 PM 40.6°F4.8°C 37.9°F3.3°C 90% 7.6 mph E12.2 kmh E 8.3 mph13.4 kmh 29.80 in1009.1 mb 0.00 in0.0 mm 0.00 in0.0 mm 0.04 in1.0 mm
01:16 PM 40.6°F4.8°C 37.9°F3.3°C 90% 6.0 mph NE9.7 kmh NE 6.9 mph11.1 kmh 29.80 in1009.1 mb 0.00 in0.0 mm 0.00 in0.0 mm 0.04 in1.0 mm
01:17 PM 40.6°F4.8°C 37.9°F3.3°C 90% 6.9 mph E11.1 kmh E 7.6 mph12.2 kmh 29.81 in1009.5 mb 0.00 in0.0 mm 0.00 in0.0 mm 0.04 in1.0 mm
01:19 PM 40.8°F4.9°C 38.1°F3.4°C 90% 6.9 mph NE11.1 kmh NE 8.3 mph13.4 kmh 29.79 in1008.8 mb 0.00 in0.0 mm 0.00 in0.0 mm 0.04 in1.0 mm
01:21 PM 41.2°F5.1°C 38.5°F3.6°C 90% 6.9 mph E11.1 kmh E 7.6 mph12.2 kmh 29.80 in1009.1 mb 0.00 in0.0 mm 0.00 in0.0 mm 0.04 in1.0 mm
01:23 PM 41.4°F5.2°C 38.7°F3.7°C 90% 6.9 mph E11.1 kmh E 7.6 mph12.2 kmh 29.80 in1009.1 mb 0.00 in0.0 mm 0.00 in0.0 mm 0.04 in1.0 mm
01:25 PM 42.1°F5.6°C 39.7°F4.3°C 91% 6.0 mph E9.7 kmh E 6.9 mph11.1 kmh 29.80 in1009.1 mb 0.00 in0.0 mm 0.00 in0.0 mm 0.04 in1.0 mm
01:27 PM 42.8°F6.0°C 40.4°F4.7°C 91% 6.9 mph E11.1 kmh E 7.6 mph12.2 kmh 29.80 in1009.1 mb 0.00 in0.0 mm 0.00 in0.0 mm 0.04 in1.0 mm
01:29 PM 43.2°F6.2°C 40.7°F4.8°C 91% 6.9 mph E11.1 kmh E 7.6 mph12.2 kmh 29.80 in1009.1 mb 0.00 in0.0 mm 0.00 in0.0 mm 0.04 in1.0 mm
01:31 PM 43.5°F6.4°C 41.1°F5.1°C 91% 6.0 mph E9.7 kmh E 6.9 mph11.1 kmh 29.80 in1009.1 mb 0.00 in0.0 mm 0.00 in0.0 mm 0.04 in1.0 mm
01:33 PM 43.9°F6.6°C 41.4°F5.2°C 91% 6.0 mph E9.7 kmh E 6.9 mph11.1 kmh 29.80 in1009.1 mb 0.00 in0.0 mm 0.00 in0.0 mm 0.04 in1.0 mm
01:35 PM 44.2°F6.8°C 41.8°F5.4°C 91% 6.9 mph E11.1 kmh E 7.6 mph12.2 kmh 29.79 in1008.8 mb 0.00 in0.0 mm 0.00 in0.0 mm 0.04 in1.0 mm
01:37 PM 44.4°F6.9°C 42.0°F5.6°C 91% 6.9 mph E11.1 kmh E 8.3 mph13.4 kmh 29.80 in1009.1 mb 0.00 in0.0 mm 0.00 in0.0 mm 0.04 in1.0 mm
01:39 PM 44.6°F7.0°C 42.1°F5.6°C 91% 8.3 mph E13.4 kmh E 9.2 mph14.8 kmh 29.79 in1008.8 mb 0.00 in0.0 mm 0.00 in0.0 mm 0.04 in1.0 mm
01:41 PM 44.4°F6.9°C 41.7°F5.4°C 90% 7.6 mph E12.2 kmh E 8.3 mph13.4 kmh 29.79 in1008.8 mb 0.00 in0.0 mm 0.00 in0.0 mm 0.04 in1.0 mm
01:43 PM 44.4°F6.9°C 41.7°F5.4°C 90% 6.0 mph E9.7 kmh E 7.6 mph12.2 kmh 29.78 in1008.5 mb 0.00 in0.0 mm 0.00 in0.0 mm 0.04 in1.0 mm
01:45 PM 44.1°F6.7°C 41.0°F5.0°C 89% 6.9 mph NE11.1 kmh NE 8.3 mph13.4 kmh 29.78 in1008.5 mb 0.00 in0.0 mm 0.00 in0.0 mm 0.04 in1.0 mm
01:47 PM 43.9°F6.6°C 40.6°F4.8°C 88% 8.3 mph NE13.4 kmh NE 9.2 mph14.8 kmh 29.78 in1008.5 mb 0.00 in0.0 mm 0.00 in0.0 mm 0.04 in1.0 mm
01:49 PM 43.7°F6.5°C 40.1°F4.5°C 87% 7.6 mph NE12.2 kmh NE 8.3 mph13.4 kmh 29.78 in1008.5 mb 0.00 in0.0 mm 0.00 in0.0 mm 0.04 in1.0 mm
01:51 PM 43.7°F6.5°C 40.1°F4.5°C 87% 6.0 mph E9.7 kmh E 6.9 mph11.1 kmh 29.78 in1008.5 mb 0.00 in0.0 mm 0.00 in0.0 mm 0.04 in1.0 mm
01:53 PM 43.5°F6.4°C 39.9°F4.4°C 87% 6.9 mph E11.1 kmh E 7.6 mph12.2 kmh 29.78 in1008.5 mb 0.00 in0.0 mm 0.00 in0.0 mm 0.04 in1.0 mm
01:55 PM 43.3°F6.3°C 39.4°F4.1°C 86% 5.4 mph NE8.7 kmh NE 6.9 mph11.1 kmh 29.78 in1008.5 mb 0.00 in0.0 mm 0.00 in0.0 mm 0.04 in1.0 mm
01:59 PM 43.7°F6.5°C 39.8°F4.3°C 86% 6.0 mph NE9.7 kmh NE 6.9 mph11.1 kmh 29.78 in1008.5 mb 0.00 in0.0 mm 0.00 in0.0 mm 0.04 in1.0 mm
02:01 PM 43.7°F6.5°C 39.8°F4.3°C 86% 6.0 mph NE9.7 kmh NE 6.9 mph11.1 kmh 29.78 in1008.5 mb 0.00 in0.0 mm 0.00 in0.0 mm 0.04 in1.0 mm
02:03 PM 43.7°F6.5°C 39.8°F4.3°C 86% 6.0 mph NE9.7 kmh NE 6.9 mph11.1 kmh 29.78 in1008.5 mb 0.00 in0.0 mm 0.00 in0.0 mm 0.04 in1.0 mm
02:05 PM 43.7°F6.5°C 39.8°F4.3°C 86% 6.0 mph NE9.7 kmh NE 6.9 mph11.1 kmh 29.78 in1008.5 mb 0.00 in0.0 mm 0.00 in0.0 mm 0.04 in1.0 mm
02:07 PM 43.5°F6.4°C 39.0°F3.9°C 84% 6.0 mph NE9.7 kmh NE 6.9 mph11.1 kmh 29.78 in1008.5 mb 0.00 in0.0 mm 0.00 in0.0 mm 0.04 in1.0 mm
02:09 PM 43.5°F6.4°C 39.0°F3.9°C 84% 4.5 mph E7.2 kmh E 6.0 mph9.7 kmh 29.78 in1008.5 mb 0.00 in0.0 mm 0.00 in0.0 mm 0.04 in1.0 mm
02:11 PM 43.3°F6.3°C 38.8°F3.8°C 84% 6.9 mph NE11.1 kmh NE 7.6 mph12.2 kmh 29.77 in1008.1 mb 0.00 in0.0 mm 0.00 in0.0 mm 0.04 in1.0 mm
02:13 PM 43.3°F6.3°C 38.8°F3.8°C 84% 6.0 mph NE9.7 kmh NE 6.9 mph11.1 kmh 29.77 in1008.1 mb 0.00 in0.0 mm 0.00 in0.0 mm 0.04 in1.0 mm
02:15 PM 43.5°F6.4°C 39.0°F3.9°C 84% 3.8 mph NE6.1 kmh NE 4.5 mph7.2 kmh 29.77 in1008.1 mb 0.00 in0.0 mm 0.00 in0.0 mm 0.04 in1.0 mm
02:17 PM 43.5°F6.4°C 39.0°F3.9°C 84% 5.4 mph NE8.7 kmh NE 6.0 mph9.7 kmh 29.77 in1008.1 mb 0.00 in0.0 mm 0.00 in0.0 mm 0.04 in1.0 mm
02:19 PM 43.9°F6.6°C 39.4°F4.1°C 84% 6.0 mph NE9.7 kmh NE 6.9 mph11.1 kmh 29.77 in1008.1 mb 0.00 in0.0 mm 0.00 in0.0 mm 0.04 in1.0 mm
02:21 PM 43.9°F6.6°C 39.7°F4.3°C 85% 6.9 mph NE11.1 kmh NE 7.6 mph12.2 kmh 29.77 in1008.1 mb 0.00 in0.0 mm 0.00 in0.0 mm 0.04 in1.0 mm
02:23 PM 44.1°F6.7°C 39.8°F4.3°C 85% 7.6 mph NE12.2 kmh NE 8.3 mph13.4 kmh 29.76 in1007.8 mb 0.00 in0.0 mm 0.00 in0.0 mm 0.04 in1.0 mm
02:25 PM 44.2°F6.8°C 40.0°F4.4°C 85% 7.6 mph E12.2 kmh E 9.2 mph14.8 kmh 29.76 in1007.8 mb 0.00 in0.0 mm 0.00 in0.0 mm 0.04 in1.0 mm
02:27 PM 44.1°F6.7°C 39.5°F4.2°C 84% 5.4 mph E8.7 kmh E 6.0 mph9.7 kmh 29.76 in1007.8 mb 0.00 in0.0 mm 0.00 in0.0 mm 0.04 in1.0 mm
02:29 PM 44.1°F6.7°C 39.5°F4.2°C 84% 6.9 mph E11.1 kmh E 7.6 mph12.2 kmh 29.76 in1007.8 mb 0.00 in0.0 mm 0.00 in0.0 mm 0.04 in1.0 mm
02:31 PM 44.1°F6.7°C 39.5°F4.2°C 84% 3.1 mph E5.0 kmh E 3.8 mph6.1 kmh 29.76 in1007.8 mb 0.00 in0.0 mm 0.00 in0.0 mm 0.04 in1.0 mm
02:33 PM 44.1°F6.7°C 39.5°F4.2°C 84% 5.4 mph E8.7 kmh E 6.0 mph9.7 kmh 29.76 in1007.8 mb 0.00 in0.0 mm 0.00 in0.0 mm 0.04 in1.0 mm
02:35 PM 44.2°F6.8°C 39.7°F4.3°C 84% 6.0 mph E9.7 kmh E 6.9 mph11.1 kmh 29.76 in1007.8 mb 0.00 in0.0 mm 0.00 in0.0 mm 0.04 in1.0 mm
02:37 PM 44.2°F6.8°C 39.4°F4.1°C 83% 5.4 mph E8.7 kmh E 6.0 mph9.7 kmh 29.75 in1007.5 mb 0.00 in0.0 mm 0.00 in0.0 mm 0.04 in1.0 mm
02:39 PM 44.2°F6.8°C 39.4°F4.1°C 83% 6.0 mph E9.7 kmh E 6.9 mph11.1 kmh 29.76 in1007.8 mb 0.00 in0.0 mm 0.00 in0.0 mm 0.04 in1.0 mm
02:41 PM 44.2°F6.8°C 39.4°F4.1°C 83% 3.1 mph E5.0 kmh E 4.5 mph7.2 kmh 29.76 in1007.8 mb 0.00 in0.0 mm 0.00 in0.0 mm 0.04 in1.0 mm
02:43 PM 44.2°F6.8°C 39.4°F4.1°C 83% 3.8 mph E6.1 kmh E 4.5 mph7.2 kmh 29.76 in1007.8 mb 0.00 in0.0 mm 0.00 in0.0 mm 0.04 in1.0 mm
02:45 PM 44.2°F6.8°C 39.4°F4.1°C 83% 6.0 mph E9.7 kmh E 6.9 mph11.1 kmh 29.76 in1007.8 mb 0.00 in0.0 mm 0.00 in0.0 mm 0.04 in1.0 mm
02:47 PM 44.2°F6.8°C 39.4°F4.1°C 83% 4.5 mph E7.2 kmh E 6.0 mph9.7 kmh 29.76 in1007.8 mb 0.00 in0.0 mm 0.00 in0.0 mm 0.04 in1.0 mm
02:49 PM 44.2°F6.8°C 39.4°F4.1°C 83% 7.6 mph E12.2 kmh E 9.2 mph14.8 kmh 29.76 in1007.8 mb 0.00 in0.0 mm 0.00 in0.0 mm 0.04 in1.0 mm
02:51 PM 44.1°F6.7°C 39.2°F4.0°C 83% 8.3 mph E13.4 kmh E 9.8 mph15.8 kmh 29.76 in1007.8 mb 0.00 in0.0 mm 0.00 in0.0 mm 0.04 in1.0 mm
02:53 PM 44.1°F6.7°C 39.2°F4.0°C 83% 9.2 mph E14.8 kmh E 10.7 mph17.2 kmh 29.76 in1007.8 mb 0.00 in0.0 mm 0.00 in0.0 mm 0.04 in1.0 mm
02:55 PM 43.9°F6.6°C 39.1°F3.9°C 83% 5.4 mph NE8.7 kmh NE 6.0 mph9.7 kmh 29.75 in1007.5 mb 0.00 in0.0 mm 0.00 in0.0 mm 0.04 in1.0 mm
02:57 PM 43.9°F6.6°C 39.1°F3.9°C 83% 4.5 mph NE7.2 kmh NE 5.4 mph8.7 kmh 29.75 in1007.5 mb 0.00 in0.0 mm 0.00 in0.0 mm 0.04 in1.0 mm
02:59 PM 43.9°F6.6°C 39.1°F3.9°C 83% 5.4 mph NE8.7 kmh NE 6.9 mph11.1 kmh 29.75 in1007.5 mb 0.00 in0.0 mm 0.00 in0.0 mm 0.04 in1.0 mm
03:01 PM 43.7°F6.5°C 38.9°F3.8°C 83% 6.9 mph NE11.1 kmh NE 8.3 mph13.4 kmh 29.75 in1007.5 mb 0.00 in0.0 mm 0.00 in0.0 mm 0.04 in1.0 mm
03:03 PM 43.7°F6.5°C 38.9°F3.8°C 83% 6.0 mph NE9.7 kmh NE 6.9 mph11.1 kmh 29.76 in1007.8 mb 0.00 in0.0 mm 0.00 in0.0 mm 0.04 in1.0 mm
03:05 PM 43.7°F6.5°C 38.9°F3.8°C 83% 6.0 mph NE9.7 kmh NE 6.9 mph11.1 kmh 29.76 in1007.8 mb 0.00 in0.0 mm 0.00 in0.0 mm 0.04 in1.0 mm
03:07 PM 43.7°F6.5°C 38.9°F3.8°C 83% 4.5 mph E7.2 kmh E 5.4 mph8.7 kmh 29.75 in1007.5 mb 0.00 in0.0 mm 0.00 in0.0 mm 0.04 in1.0 mm
03:09 PM 43.9°F6.6°C 39.1°F3.9°C 83% 4.5 mph E7.2 kmh E 6.0 mph9.7 kmh 29.75 in1007.5 mb 0.00 in0.0 mm 0.00 in0.0 mm 0.04 in1.0 mm
03:11 PM 44.1°F6.7°C 39.2°F4.0°C 83% 3.1 mph ENE5.0 kmh ENE 3.8 mph6.1 kmh 29.75 in1007.5 mb 0.00 in0.0 mm 0.00 in0.0 mm 0.04 in1.0 mm
03:13 PM 44.2°F6.8°C 39.4°F4.1°C 83% 0.7 mph ENE1.1 kmh ENE 1.6 mph2.6 kmh 29.75 in1007.5 mb 0.00 in0.0 mm 0.00 in0.0 mm 0.04 in1.0 mm
03:15 PM 44.6°F7.0°C 40.1°F4.5°C 84% 1.6 mph SE2.6 kmh SE 2.2 mph3.5 kmh 29.75 in1007.5 mb 0.00 in0.0 mm 0.00 in0.0 mm 0.04 in1.0 mm
03:17 PM 44.8°F7.1°C 40.3°F4.6°C 84% 1.6 mph SE2.6 kmh SE 2.2 mph3.5 kmh 29.75 in1007.5 mb 0.00 in0.0 mm 0.00 in0.0 mm 0.04 in1.0 mm
03:19 PM 45.0°F7.2°C 40.4°F4.7°C 84% 6.9 mph SSE11.1 kmh SSE 8.3 mph13.4 kmh 29.75 in1007.5 mb 0.00 in0.0 mm 0.00 in0.0 mm 0.04 in1.0 mm
03:21 PM 45.1°F7.3°C 40.6°F4.8°C 84% 3.8 mph SE6.1 kmh SE 5.4 mph8.7 kmh 29.75 in1007.5 mb 0.00 in0.0 mm 0.00 in0.0 mm 0.04 in1.0 mm
03:23 PM 45.5°F7.5°C 39.7°F4.3°C 80% 2.2 mph SE3.5 kmh SE 3.8 mph6.1 kmh 29.75 in1007.5 mb 0.00 in0.0 mm 0.00 in0.0 mm 0.04 in1.0 mm
03:25 PM 45.7°F7.6°C 39.9°F4.4°C 80% 3.1 mph S5.0 kmh S 3.8 mph6.1 kmh 29.75 in1007.5 mb 0.00 in0.0 mm 0.00 in0.0 mm 0.04 in1.0 mm
03:27 PM 46.0°F7.8°C 40.2°F4.6°C 80% 3.1 mph SE5.0 kmh SE 4.5 mph7.2 kmh 29.75 in1007.5 mb 0.00 in0.0 mm 0.00 in0.0 mm 0.04 in1.0 mm
03:29 PM 46.0°F7.8°C 39.9°F4.4°C 79% 1.6 mph SE2.6 kmh SE 2.2 mph3.5 kmh 29.76 in1007.8 mb 0.00 in0.0 mm 0.00 in0.0 mm 0.04 in1.0 mm
03:31 PM 46.4°F8.0°C 40.3°F4.6°C 79% 2.2 mph SE3.5 kmh SE 3.8 mph6.1 kmh 29.75 in1007.5 mb 0.00 in0.0 mm 0.00 in0.0 mm 0.04 in1.0 mm
03:33 PM 46.6°F8.1°C 40.1°F4.5°C 78% 3.8 mph SE6.1 kmh SE 4.5 mph7.2 kmh 29.75 in1007.5 mb 0.00 in0.0 mm 0.00 in0.0 mm 0.04 in1.0 mm
03:35 PM 46.8°F8.2°C 40.3°F4.6°C 78% 3.8 mph SE6.1 kmh SE 4.5 mph7.2 kmh 29.75 in1007.5 mb 0.00 in0.0 mm 0.00 in0.0 mm 0.04 in1.0 mm
03:37 PM 46.9°F8.3°C 40.1°F4.5°C 77% 3.8 mph SE6.1 kmh SE 5.4 mph8.7 kmh 29.75 in1007.5 mb 0.00 in0.0 mm 0.00 in0.0 mm 0.04 in1.0 mm
03:39 PM 46.9°F8.3°C 39.8°F4.3°C 76% 3.1 mph SE5.0 kmh SE 3.8 mph6.1 kmh 29.76 in1007.8 mb 0.00 in0.0 mm 0.00 in0.0 mm 0.04 in1.0 mm
03:41 PM 47.1°F8.4°C 39.6°F4.2°C 75% 4.5 mph SE7.2 kmh SE 5.4 mph8.7 kmh 29.76 in1007.8 mb 0.00 in0.0 mm 0.00 in0.0 mm 0.04 in1.0 mm
03:43 PM 47.3°F8.5°C 39.8°F4.3°C 75% 3.8 mph S6.1 kmh S 4.5 mph7.2 kmh 29.76 in1007.8 mb 0.00 in0.0 mm 0.00 in0.0 mm 0.04 in1.0 mm
03:45 PM 47.3°F8.5°C 39.4°F4.1°C 74% 3.1 mph SE5.0 kmh SE 3.8 mph6.1 kmh 29.75 in1007.5 mb 0.00 in0.0 mm 0.00 in0.0 mm 0.04 in1.0 mm
03:47 PM 47.3°F8.5°C 39.4°F4.1°C 74% 4.5 mph SE7.2 kmh SE 6.0 mph9.7 kmh 29.76 in1007.8 mb 0.00 in0.0 mm 0.00 in0.0 mm 0.04 in1.0 mm
03:49 PM 47.3°F8.5°C 39.4°F4.1°C 74% 3.1 mph SE5.0 kmh SE 3.8 mph6.1 kmh 29.76 in1007.8 mb 0.00 in0.0 mm 0.00 in0.0 mm 0.04 in1.0 mm
03:51 PM 47.5°F8.6°C 39.6°F4.2°C 74% 3.1 mph SE5.0 kmh SE 4.5 mph7.2 kmh 29.76 in1007.8 mb 0.00 in0.0 mm 0.00 in0.0 mm 0.04 in1.0 mm
03:53 PM 47.5°F8.6°C 39.3°F4.1°C 73% 4.5 mph SE7.2 kmh SE 6.0 mph9.7 kmh 29.76 in1007.8 mb 0.00 in0.0 mm 0.00 in0.0 mm 0.04 in1.0 mm
03:55 PM 47.7°F8.7°C 39.4°F4.1°C 73% 3.8 mph SE6.1 kmh SE 5.4 mph8.7 kmh 29.75 in1007.5 mb 0.00 in0.0 mm 0.00 in0.0 mm 0.04 in1.0 mm
03:57 PM 47.8°F8.8°C 39.6°F4.2°C 73% 2.2 mph SE3.5 kmh SE 3.1 mph5.0 kmh 29.75 in1007.5 mb 0.00 in0.0 mm 0.00 in0.0 mm 0.04 in1.0 mm
03:59 PM 48.2°F9.0°C 40.0°F4.4°C 73% 3.8 mph SE6.1 kmh SE 4.5 mph7.2 kmh 29.75 in1007.5 mb 0.00 in0.0 mm 0.00 in0.0 mm 0.04 in1.0 mm
04:01 PM 48.4°F9.1°C 40.1°F4.5°C 73% 3.8 mph SE6.1 kmh SE 5.4 mph8.7 kmh 29.76 in1007.8 mb 0.00 in0.0 mm 0.00 in0.0 mm 0.04 in1.0 mm
04:03 PM 48.7°F9.3°C 40.1°F4.5°C 72% 4.5 mph SE7.2 kmh SE 6.0 mph9.7 kmh 29.76 in1007.8 mb 0.00 in0.0 mm 0.00 in0.0 mm 0.04 in1.0 mm
04:05 PM 48.9°F9.4°C 40.3°F4.6°C 72% 3.8 mph S6.1 kmh S 6.0 mph9.7 kmh 29.76 in1007.8 mb 0.00 in0.0 mm 0.00 in0.0 mm 0.04 in1.0 mm
04:07 PM 49.1°F9.5°C 40.1°F4.5°C 71% 6.9 mph S11.1 kmh S 7.6 mph12.2 kmh 29.76 in1007.8 mb 0.00 in0.0 mm 0.00 in0.0 mm 0.04 in1.0 mm
04:09 PM 49.3°F9.6°C 40.3°F4.6°C 71% 7.6 mph SE12.2 kmh SE 9.8 mph15.8 kmh 29.76 in1007.8 mb 0.00 in0.0 mm 0.00 in0.0 mm 0.04 in1.0 mm
04:11 PM 49.5°F9.7°C 40.1°F4.5°C 70% 3.8 mph E6.1 kmh E 9.2 mph14.8 kmh 29.76 in1007.8 mb 0.00 in0.0 mm 0.00 in0.0 mm 0.04 in1.0 mm
04:13 PM 49.5°F9.7°C 40.1°F4.5°C 70% 5.4 mph SE8.7 kmh SE 6.9 mph11.1 kmh 29.76 in1007.8 mb 0.00 in0.0 mm 0.00 in0.0 mm 0.04 in1.0 mm
04:15 PM 49.5°F9.7°C 40.1°F4.5°C 70% 5.4 mph S8.7 kmh S 6.0 mph9.7 kmh 29.76 in1007.8 mb 0.00 in0.0 mm 0.00 in0.0 mm 0.04 in1.0 mm
04:17 PM 49.5°F9.7°C 40.1°F4.5°C 70% 5.4 mph S8.7 kmh S 6.0 mph9.7 kmh 29.76 in1007.8 mb 0.00 in0.0 mm 0.00 in0.0 mm 0.04 in1.0 mm
04:19 PM 49.3°F9.6°C 39.9°F4.4°C 70% 3.1 mph S5.0 kmh S 3.8 mph6.1 kmh 29.76 in1007.8 mb 0.00 in0.0 mm 0.00 in0.0 mm 0.04 in1.0 mm
04:21 PM 49.3°F9.6°C 39.9°F4.4°C 70% 4.5 mph S7.2 kmh S 6.0 mph9.7 kmh 29.76 in1007.8 mb 0.00 in0.0 mm 0.00 in0.0 mm 0.04 in1.0 mm
04:23 PM 49.1°F9.5°C 39.7°F4.3°C 70% 3.8 mph S6.1 kmh S 4.5 mph7.2 kmh 29.76 in1007.8 mb 0.00 in0.0 mm 0.00 in0.0 mm 0.04 in1.0 mm
04:25 PM 48.9°F9.4°C 39.6°F4.2°C 70% 1.6 mph S2.6 kmh S 2.2 mph3.5 kmh 29.75 in1007.5 mb 0.00 in0.0 mm 0.00 in0.0 mm 0.04 in1.0 mm
04:27 PM 48.7°F9.3°C 39.4°F4.1°C 70% 2.2 mph SE3.5 kmh SE 3.1 mph5.0 kmh 29.76 in1007.8 mb 0.00 in0.0 mm 0.00 in0.0 mm 0.04 in1.0 mm
04:29 PM 48.6°F9.2°C 39.2°F4.0°C 70% 3.1 mph SE5.0 kmh SE 4.5 mph7.2 kmh 29.76 in1007.8 mb 0.00 in0.0 mm 0.00 in0.0 mm 0.04 in1.0 mm
04:31 PM 48.4°F9.1°C 39.1°F3.9°C 70% 5.4 mph SE8.7 kmh SE 6.9 mph11.1 kmh 29.76 in1007.8 mb 0.00 in0.0 mm 0.00 in0.0 mm 0.04 in1.0 mm
04:33 PM 48.2°F9.0°C 38.9°F3.8°C 70% 4.5 mph S7.2 kmh S 6.0 mph9.7 kmh 29.76 in1007.8 mb 0.00 in0.0 mm 0.00 in0.0 mm 0.04 in1.0 mm
04:35 PM 48.0°F8.9°C 38.7°F3.7°C 70% 7.6 mph S12.2 kmh S 9.8 mph15.8 kmh 29.76 in1007.8 mb 0.00 in0.0 mm 0.00 in0.0 mm 0.04 in1.0 mm
04:37 PM 47.8°F8.8°C 38.5°F3.6°C 70% 5.4 mph S8.7 kmh S 6.9 mph11.1 kmh 29.76 in1007.8 mb 0.00 in0.0 mm 0.00 in0.0 mm 0.04 in1.0 mm
04:40 PM 47.7°F8.7°C 38.4°F3.6°C 70% 5.4 mph S8.7 kmh S 6.9 mph11.1 kmh 29.76 in1007.8 mb 0.00 in0.0 mm 0.00 in0.0 mm 0.04 in1.0 mm
04:42 PM 47.7°F8.7°C 38.7°F3.7°C 71% 5.4 mph S8.7 kmh S 6.9 mph11.1 kmh 29.77 in1008.1 mb 0.00 in0.0 mm 0.00 in0.0 mm 0.04 in1.0 mm
04:44 PM 47.5°F8.6°C 38.6°F3.7°C 71% 4.5 mph S7.2 kmh S 6.0 mph9.7 kmh 29.76 in1007.8 mb 0.00 in0.0 mm 0.00 in0.0 mm 0.04 in1.0 mm
04:46 PM 47.3°F8.5°C 38.4°F3.6°C 71% 6.0 mph S9.7 kmh S 8.3 mph13.4 kmh 29.75 in1007.5 mb 0.00 in0.0 mm 0.00 in0.0 mm 0.04 in1.0 mm
04:48 PM 47.3°F8.5°C 38.4°F3.6°C 71% 6.0 mph S9.7 kmh S 6.9 mph11.1 kmh 29.76 in1007.8 mb 0.00 in0.0 mm 0.00 in0.0 mm 0.04 in1.0 mm
04:50 PM 47.1°F8.4°C 38.2°F3.4°C 71% 6.9 mph S11.1 kmh S 9.2 mph14.8 kmh 29.76 in1007.8 mb 0.00 in0.0 mm 0.00 in0.0 mm 0.04 in1.0 mm
04:52 PM 46.9°F8.3°C 38.0°F3.3°C 71% 6.0 mph S9.7 kmh S 6.9 mph11.1 kmh 29.76 in1007.8 mb 0.00 in0.0 mm 0.00 in0.0 mm 0.04 in1.0 mm
04:54 PM 46.9°F8.3°C 38.0°F3.3°C 71% 4.5 mph S7.2 kmh S 5.4 mph8.7 kmh 29.76 in1007.8 mb 0.00 in0.0 mm 0.00 in0.0 mm 0.04 in1.0 mm
04:56 PM 46.8°F8.2°C 38.2°F3.4°C 72% 2.2 mph S3.5 kmh S 3.8 mph6.1 kmh 29.76 in1007.8 mb 0.00 in0.0 mm 0.00 in0.0 mm 0.04 in1.0 mm
04:58 PM 46.8°F8.2°C 38.2°F3.4°C 72% 4.5 mph S7.2 kmh S 6.0 mph9.7 kmh 29.76 in1007.8 mb 0.00 in0.0 mm 0.00 in0.0 mm 0.04 in1.0 mm
05:00 PM 46.6°F8.1°C 38.1°F3.4°C 72% 8.3 mph SE13.4 kmh SE 9.8 mph15.8 kmh 29.76 in1007.8 mb 0.00 in0.0 mm 0.00 in0.0 mm 0.04 in1.0 mm
05:02 PM 46.4°F8.0°C 37.9°F3.3°C 72% 6.0 mph S9.7 kmh S 10.7 mph17.2 kmh 29.75 in1007.5 mb 0.00 in0.0 mm 0.00 in0.0 mm 0.04 in1.0 mm
05:04 PM 46.4°F8.0°C 37.9°F3.3°C 72% 4.5 mph S7.2 kmh S 5.4 mph8.7 kmh 29.76 in1007.8 mb 0.00 in0.0 mm 0.00 in0.0 mm 0.04 in1.0 mm
05:06 PM 46.2°F7.9°C 37.7°F3.2°C 72% 9.2 mph SSE14.8 kmh SSE 10.7 mph17.2 kmh 29.76 in1007.8 mb 0.00 in0.0 mm 0.00 in0.0 mm 0.04 in1.0 mm
05:08 PM 46.0°F7.8°C 37.5°F3.1°C 72% 10.7 mph SE17.2 kmh SE 13.0 mph20.9 kmh 29.76 in1007.8 mb 0.00 in0.0 mm 0.00 in0.0 mm 0.04 in1.0 mm
05:10 PM 45.9°F7.7°C 37.7°F3.2°C 73% 3.8 mph S6.1 kmh S 4.5 mph7.2 kmh 29.76 in1007.8 mb 0.00 in0.0 mm 0.00 in0.0 mm 0.04 in1.0 mm
05:12 PM 45.9°F7.7°C 37.7°F3.2°C 73% 5.4 mph SSE8.7 kmh SSE 6.0 mph9.7 kmh 29.77 in1008.1 mb 0.00 in0.0 mm 0.00 in0.0 mm 0.04 in1.0 mm
05:14 PM 45.7°F7.6°C 37.5°F3.1°C 73% 5.4 mph SE8.7 kmh SE 6.9 mph11.1 kmh 29.76 in1007.8 mb 0.00 in0.0 mm 0.00 in0.0 mm 0.04 in1.0 mm
05:16 PM 45.7°F7.6°C 37.5°F3.1°C 73% 5.4 mph S8.7 kmh S 6.9 mph11.1 kmh 29.76 in1007.8 mb 0.00 in0.0 mm 0.00 in0.0 mm 0.04 in1.0 mm
05:18 PM 45.5°F7.5°C 37.7°F3.2°C 74% 6.0 mph S9.7 kmh S 7.6 mph12.2 kmh 29.77 in1008.1 mb 0.00 in0.0 mm 0.00 in0.0 mm 0.04 in1.0 mm
05:20 PM 45.5°F7.5°C 37.7°F3.2°C 74% 5.4 mph SE8.7 kmh SE 6.0 mph9.7 kmh 29.77 in1008.1 mb 0.00 in0.0 mm 0.00 in0.0 mm 0.04 in1.0 mm
05:22 PM 45.3°F7.4°C 39.5°F4.2°C 80% 4.5 mph ENE7.2 kmh ENE 6.9 mph11.1 kmh 29.76 in1007.8 mb 0.00 in0.0 mm 0.00 in0.0 mm 0.04 in1.0 mm
05:24 PM 45.3°F7.4°C 39.8°F4.3°C 81% 6.9 mph SE11.1 kmh SE 8.3 mph13.4 kmh 29.76 in1007.8 mb 0.00 in0.0 mm 0.00 in0.0 mm 0.04 in1.0 mm
05:26 PM 45.3°F7.4°C 39.8°F4.3°C 81% 6.0 mph SE9.7 kmh SE 9.8 mph15.8 kmh 29.77 in1008.1 mb 0.00 in0.0 mm 0.00 in0.0 mm 0.04 in1.0 mm
05:28 PM 45.3°F7.4°C 39.8°F4.3°C 81% 9.2 mph S14.8 kmh S 10.7 mph17.2 kmh 29.77 in1008.1 mb 0.00 in0.0 mm 0.00 in0.0 mm 0.04 in1.0 mm
05:30 PM 45.1°F7.3°C 39.7°F4.3°C 81% 8.3 mph S13.4 kmh S 9.8 mph15.8 kmh 29.77 in1008.1 mb 0.00 in0.0 mm 0.00 in0.0 mm 0.04 in1.0 mm
05:32 PM 45.1°F7.3°C 39.7°F4.3°C 81% 3.8 mph SE6.1 kmh SE 6.0 mph9.7 kmh 29.76 in1007.8 mb 0.00 in0.0 mm 0.00 in0.0 mm 0.04 in1.0 mm
05:34 PM 45.1°F7.3°C 39.7°F4.3°C 81% 3.8 mph S6.1 kmh S 5.4 mph8.7 kmh 29.77 in1008.1 mb 0.00 in0.0 mm 0.00 in0.0 mm 0.04 in1.0 mm
05:36 PM 45.1°F7.3°C 39.7°F4.3°C 81% 6.0 mph SE9.7 kmh SE 7.6 mph12.2 kmh 29.77 in1008.1 mb 0.00 in0.0 mm 0.00 in0.0 mm 0.04 in1.0 mm
05:38 PM 45.1°F7.3°C 39.7°F4.3°C 81% 4.5 mph SE7.2 kmh SE 6.0 mph9.7 kmh 29.76 in1007.8 mb 0.00 in0.0 mm 0.00 in0.0 mm 0.04 in1.0 mm
05:40 PM 45.1°F7.3°C 39.7°F4.3°C 81% 3.1 mph S5.0 kmh S 4.5 mph7.2 kmh 29.77 in1008.1 mb 0.00 in0.0 mm 0.00 in0.0 mm 0.04 in1.0 mm
05:42 PM 45.1°F7.3°C 39.7°F4.3°C 81% 4.5 mph SE7.2 kmh SE 6.0 mph9.7 kmh 29.76 in1007.8 mb 0.00 in0.0 mm 0.00 in0.0 mm 0.04 in1.0 mm
05:44 PM 45.1°F7.3°C 39.7°F4.3°C 81% 8.3 mph SSE13.4 kmh SSE 9.8 mph15.8 kmh 29.77 in1008.1 mb 0.00 in0.0 mm 0.00 in0.0 mm 0.04 in1.0 mm
05:46 PM 45.0°F7.2°C 39.5°F4.2°C 81% 3.8 mph SE6.1 kmh SE 5.4 mph8.7 kmh 29.77 in1008.1 mb 0.00 in0.0 mm 0.00 in0.0 mm 0.04 in1.0 mm
05:48 PM 45.0°F7.2°C 39.5°F4.2°C 81% 3.1 mph SE5.0 kmh SE 3.8 mph6.1 kmh 29.77 in1008.1 mb 0.00 in0.0 mm 0.00 in0.0 mm 0.04 in1.0 mm
05:50 PM 45.0°F7.2°C 39.5°F4.2°C 81% 3.8 mph SE6.1 kmh SE 5.4 mph8.7 kmh 29.77 in1008.1 mb 0.00 in0.0 mm 0.00 in0.0 mm 0.04 in1.0 mm
05:52 PM 45.0°F7.2°C 39.5°F4.2°C 81% 3.1 mph S5.0 kmh S 4.5 mph7.2 kmh 29.77 in1008.1 mb 0.00 in0.0 mm 0.00 in0.0 mm 0.04 in1.0 mm
05:54 PM 45.0°F7.2°C 39.5°F4.2°C 81% 3.8 mph SE6.1 kmh SE 6.0 mph9.7 kmh 29.77 in1008.1 mb 0.00 in0.0 mm 0.00 in0.0 mm 0.04 in1.0 mm
05:56 PM 45.0°F7.2°C 39.5°F4.2°C 81% 6.0 mph SSE9.7 kmh SSE 6.9 mph11.1 kmh 29.77 in1008.1 mb 0.00 in0.0 mm 0.00 in0.0 mm 0.04 in1.0 mm
05:58 PM 45.0°F7.2°C 39.5°F4.2°C 81% 7.6 mph S12.2 kmh S 8.3 mph13.4 kmh 29.77 in1008.1 mb 0.00 in0.0 mm 0.00 in0.0 mm 0.04 in1.0 mm
06:00 PM 45.0°F7.2°C 39.5°F4.2°C 81% 4.5 mph SE7.2 kmh SE 6.0 mph9.7 kmh 29.78 in1008.5 mb 0.00 in0.0 mm 0.00 in0.0 mm 0.04 in1.0 mm
06:02 PM 45.0°F7.2°C 39.5°F4.2°C 81% 6.9 mph SE11.1 kmh SE 8.3 mph13.4 kmh 29.78 in1008.5 mb 0.00 in0.0 mm 0.00 in0.0 mm 0.04 in1.0 mm
06:04 PM 45.0°F7.2°C 39.5°F4.2°C 81% 10.7 mph E17.2 kmh E 12.1 mph19.5 kmh 29.78 in1008.5 mb 0.00 in0.0 mm 0.00 in0.0 mm 0.04 in1.0 mm
06:06 PM 45.0°F7.2°C 39.8°F4.3°C 82% 8.3 mph SE13.4 kmh SE 9.8 mph15.8 kmh 29.78 in1008.5 mb 0.00 in0.0 mm 0.00 in0.0 mm 0.04 in1.0 mm
06:08 PM 45.0°F7.2°C 39.8°F4.3°C 82% 4.5 mph SE7.2 kmh SE 6.9 mph11.1 kmh 29.78 in1008.5 mb 0.00 in0.0 mm 0.00 in0.0 mm 0.04 in1.0 mm
06:10 PM 45.0°F7.2°C 39.8°F4.3°C 82% 5.4 mph S8.7 kmh S 6.9 mph11.1 kmh 29.78 in1008.5 mb 0.00 in0.0 mm 0.00 in0.0 mm 0.04 in1.0 mm
06:12 PM 45.0°F7.2°C 39.8°F4.3°C 82% 6.0 mph S9.7 kmh S 8.3 mph13.4 kmh 29.77 in1008.1 mb 0.00 in0.0 mm 0.00 in0.0 mm 0.04 in1.0 mm
06:14 PM 45.0°F7.2°C 39.8°F4.3°C 82% 7.6 mph SE12.2 kmh SE 9.2 mph14.8 kmh 29.78 in1008.5 mb 0.00 in0.0 mm 0.00 in0.0 mm 0.04 in1.0 mm
06:16 PM 45.0°F7.2°C 39.8°F4.3°C 82% 7.6 mph SE12.2 kmh SE 9.2 mph14.8 kmh 29.77 in1008.1 mb 0.00 in0.0 mm 0.00 in0.0 mm 0.04 in1.0 mm
06:18 PM 45.0°F7.2°C 39.8°F4.3°C 82% 8.3 mph SE13.4 kmh SE 9.8 mph15.8 kmh 29.77 in1008.1 mb 0.00 in0.0 mm 0.00 in0.0 mm 0.04 in1.0 mm
06:20 PM 45.0°F7.2°C 39.8°F4.3°C 82% 8.3 mph SE13.4 kmh SE 9.8 mph15.8 kmh 29.77 in1008.1 mb 0.00 in0.0 mm 0.00 in0.0 mm 0.04 in1.0 mm
06:22 PM 45.0°F7.2°C 39.8°F4.3°C 82% 6.0 mph SE9.7 kmh SE 6.9 mph11.1 kmh 29.78 in1008.5 mb 0.00 in0.0 mm 0.00 in0.0 mm 0.04 in1.0 mm
06:24 PM 45.0°F7.2°C 39.8°F4.3°C 82% 6.0 mph SE9.7 kmh SE 6.9 mph11.1 kmh 29.77 in1008.1 mb 0.00 in0.0 mm 0.00 in0.0 mm 0.04 in1.0 mm
06:26 PM 44.8°F7.1°C 39.6°F4.2°C 82% 7.6 mph S12.2 kmh S 9.2 mph14.8 kmh 29.77 in1008.1 mb 0.00 in0.0 mm 0.00 in0.0 mm 0.04 in1.0 mm
06:28 PM 44.8°F7.1°C 39.6°F4.2°C 82% 6.0 mph SE9.7 kmh SE 6.9 mph11.1 kmh 29.78 in1008.5 mb 0.00 in0.0 mm 0.00 in0.0 mm 0.04 in1.0 mm
06:30 PM 44.8°F7.1°C 39.6°F4.2°C 82% 6.0 mph SE9.7 kmh SE 6.9 mph11.1 kmh 29.78 in1008.5 mb 0.00 in0.0 mm 0.00 in0.0 mm 0.04 in1.0 mm
06:32 PM 44.8°F7.1°C 39.6°F4.2°C 82% 6.9 mph SE11.1 kmh SE 8.3 mph13.4 kmh 29.78 in1008.5 mb 0.00 in0.0 mm 0.00 in0.0 mm 0.04 in1.0 mm
06:34 PM 44.8°F7.1°C 39.6°F4.2°C 82% 6.0 mph SE9.7 kmh SE 6.9 mph11.1 kmh 29.78 in1008.5 mb 0.00 in0.0 mm 0.00 in0.0 mm 0.04 in1.0 mm
06:36 PM 44.8°F7.1°C 39.6°F4.2°C 82% 9.2 mph SE14.8 kmh SE 9.8 mph15.8 kmh 29.78 in1008.5 mb 0.00 in0.0 mm 0.00 in0.0 mm 0.04 in1.0 mm
06:38 PM 44.6°F7.0°C 39.8°F4.3°C 83% 6.9 mph SE11.1 kmh SE 8.3 mph13.4 kmh 29.78 in1008.5 mb 0.00 in0.0 mm 0.00 in0.0 mm 0.04 in1.0 mm
06:40 PM 44.6°F7.0°C 39.8°F4.3°C 83% 6.9 mph SE11.1 kmh SE 9.2 mph14.8 kmh 29.78 in1008.5 mb 0.00 in0.0 mm 0.00 in0.0 mm 0.04 in1.0 mm
06:42 PM 44.6°F7.0°C 39.8°F4.3°C 83% 2.2 mph SE3.5 kmh SE 3.8 mph6.1 kmh 29.78 in1008.5 mb 0.00 in0.0 mm 0.00 in0.0 mm 0.04 in1.0 mm
06:44 PM 44.6°F7.0°C 39.8°F4.3°C 83% 6.0 mph SE9.7 kmh SE 6.9 mph11.1 kmh 29.78 in1008.5 mb 0.00 in0.0 mm 0.00 in0.0 mm 0.04 in1.0 mm
06:46 PM 44.6°F7.0°C 39.8°F4.3°C 83% 4.5 mph SE7.2 kmh SE 9.2 mph14.8 kmh 29.78 in1008.5 mb 0.00 in0.0 mm 0.00 in0.0 mm 0.04 in1.0 mm
06:48 PM 44.6°F7.0°C 39.8°F4.3°C 83% 6.0 mph SE9.7 kmh SE 6.9 mph11.1 kmh 29.78 in1008.5 mb 0.00 in0.0 mm 0.00 in0.0 mm 0.04 in1.0 mm
06:50 PM 44.6°F7.0°C 39.8°F4.3°C 83% 4.5 mph SE7.2 kmh SE 6.0 mph9.7 kmh 29.78 in1008.5 mb 0.00 in0.0 mm 0.00 in0.0 mm 0.04 in1.0 mm
06:52 PM 44.6°F7.0°C 39.8°F4.3°C 83% 6.0 mph SSE9.7 kmh SSE 7.6 mph12.2 kmh 29.79 in1008.8 mb 0.00 in0.0 mm 0.00 in0.0 mm 0.04 in1.0 mm
06:54 PM 44.6°F7.0°C 40.1°F4.5°C 84% 3.8 mph SSE6.1 kmh SSE 4.5 mph7.2 kmh 29.79 in1008.8 mb 0.00 in0.0 mm 0.00 in0.0 mm 0.04 in1.0 mm
06:56 PM 44.6°F7.0°C 40.1°F4.5°C 84% 4.5 mph SE7.2 kmh SE 6.9 mph11.1 kmh 29.78 in1008.5 mb 0.00 in0.0 mm 0.00 in0.0 mm 0.04 in1.0 mm
06:58 PM 44.6°F7.0°C 40.1°F4.5°C 84% 4.5 mph E7.2 kmh E 6.0 mph9.7 kmh 29.78 in1008.5 mb 0.00 in0.0 mm 0.00 in0.0 mm 0.04 in1.0 mm
07:00 PM 44.6°F7.0°C 40.1°F4.5°C 84% 7.6 mph SE12.2 kmh SE 8.3 mph13.4 kmh 29.78 in1008.5 mb 0.00 in0.0 mm 0.00 in0.0 mm 0.04 in1.0 mm
07:02 PM 44.6°F7.0°C 40.1°F4.5°C 84% 5.4 mph SE8.7 kmh SE 7.6 mph12.2 kmh 29.78 in1008.5 mb 0.00 in0.0 mm 0.00 in0.0 mm 0.04 in1.0 mm
07:04 PM 44.4°F6.9°C 39.9°F4.4°C 84% 7.6 mph SE12.2 kmh SE 8.3 mph13.4 kmh 29.78 in1008.5 mb 0.00 in0.0 mm 0.00 in0.0 mm 0.04 in1.0 mm
07:06 PM 44.4°F6.9°C 39.9°F4.4°C 84% 6.9 mph SE11.1 kmh SE 7.6 mph12.2 kmh 29.77 in1008.1 mb 0.00 in0.0 mm 0.00 in0.0 mm 0.04 in1.0 mm
07:08 PM 44.4°F6.9°C 39.9°F4.4°C 84% 5.4 mph SE8.7 kmh SE 6.9 mph11.1 kmh 29.77 in1008.1 mb 0.00 in0.0 mm 0.00 in0.0 mm 0.04 in1.0 mm
07:10 PM 44.2°F6.8°C 39.7°F4.3°C 84% 8.3 mph SE13.4 kmh SE 9.2 mph14.8 kmh 29.78 in1008.5 mb 0.00 in0.0 mm 0.00 in0.0 mm 0.04 in1.0 mm
07:12 PM 44.2°F6.8°C 39.7°F4.3°C 84% 9.2 mph SE14.8 kmh SE 9.8 mph15.8 kmh 29.78 in1008.5 mb 0.00 in0.0 mm 0.00 in0.0 mm 0.04 in1.0 mm
07:14 PM 44.2°F6.8°C 39.7°F4.3°C 84% 6.9 mph SE11.1 kmh SE 9.2 mph14.8 kmh 29.78 in1008.5 mb 0.00 in0.0 mm 0.00 in0.0 mm 0.04 in1.0 mm
07:16 PM 44.2°F6.8°C 39.7°F4.3°C 84% 7.6 mph SSE12.2 kmh SSE 9.2 mph14.8 kmh 29.78 in1008.5 mb 0.00 in0.0 mm 0.00 in0.0 mm 0.04 in1.0 mm
07:18 PM 44.2°F6.8°C 40.0°F4.4°C 85% 6.0 mph S9.7 kmh S 6.9 mph11.1 kmh 29.78 in1008.5 mb 0.00 in0.0 mm 0.00 in0.0 mm 0.04 in1.0 mm
07:20 PM 44.2°F6.8°C 40.0°F4.4°C 85% 7.6 mph ENE12.2 kmh ENE 9.8 mph15.8 kmh 29.78 in1008.5 mb 0.00 in0.0 mm 0.00 in0.0 mm 0.04 in1.0 mm
07:22 PM 44.2°F6.8°C 40.0°F4.4°C 85% 9.2 mph SE14.8 kmh SE 11.4 mph18.3 kmh 29.78 in1008.5 mb 0.00 in0.0 mm 0.00 in0.0 mm 0.04 in1.0 mm
07:24 PM 44.2°F6.8°C 40.0°F4.4°C 85% 6.9 mph SE11.1 kmh SE 8.3 mph13.4 kmh 29.78 in1008.5 mb 0.00 in0.0 mm 0.00 in0.0 mm 0.04 in1.0 mm
07:26 PM 44.2°F6.8°C 40.0°F4.4°C 85% 5.4 mph SE8.7 kmh SE 6.9 mph11.1 kmh 29.78 in1008.5 mb 0.00 in0.0 mm 0.00 in0.0 mm 0.04 in1.0 mm
07:28 PM 44.2°F6.8°C 40.3°F4.6°C 86% 6.0 mph SE9.7 kmh SE 8.3 mph13.4 kmh 29.78 in1008.5 mb 0.00 in0.0 mm 0.00 in0.0 mm 0.04 in1.0 mm
07:30 PM 44.2°F6.8°C 40.3°F4.6°C 86% 6.9 mph SE11.1 kmh SE 8.3 mph13.4 kmh 29.78 in1008.5 mb 0.00 in0.0 mm 0.00 in0.0 mm 0.04 in1.0 mm
07:32 PM 44.2°F6.8°C 40.3°F4.6°C 86% 7.6 mph S12.2 kmh S 9.8 mph15.8 kmh 29.78 in1008.5 mb 0.00 in0.0 mm 0.00 in0.0 mm 0.04 in1.0 mm
07:34 PM 44.2°F6.8°C 40.3°F4.6°C 86% 6.0 mph SE9.7 kmh SE 7.6 mph12.2 kmh 29.78 in1008.5 mb 0.00 in0.0 mm 0.00 in0.0 mm 0.04 in1.0 mm
07:36 PM 44.2°F6.8°C 40.3°F4.6°C 86% 6.0 mph SE9.7 kmh SE 7.6 mph12.2 kmh 29.79 in1008.8 mb 0.00 in0.0 mm 0.00 in0.0 mm 0.04 in1.0 mm
07:38 PM 44.2°F6.8°C 40.3°F4.6°C 86% 7.6 mph SE12.2 kmh SE 8.3 mph13.4 kmh 29.78 in1008.5 mb 0.00 in0.0 mm 0.00 in0.0 mm 0.04 in1.0 mm
07:40 PM 44.2°F6.8°C 40.3°F4.6°C 86% 6.0 mph SE9.7 kmh SE 6.9 mph11.1 kmh 29.78 in1008.5 mb 0.00 in0.0 mm 0.00 in0.0 mm 0.04 in1.0 mm
07:42 PM 44.2°F6.8°C 40.3°F4.6°C 86% 4.5 mph SE7.2 kmh SE 6.0 mph9.7 kmh 29.78 in1008.5 mb 0.00 in0.0 mm 0.00 in0.0 mm 0.04 in1.0 mm
07:44 PM 44.2°F6.8°C 40.6°F4.8°C 87% 4.5 mph SE7.2 kmh SE 5.4 mph8.7 kmh 29.78 in1008.5 mb 0.00 in0.0 mm 0.00 in0.0 mm 0.04 in1.0 mm
07:46 PM 44.2°F6.8°C 40.6°F4.8°C 87% 4.5 mph SE7.2 kmh SE 5.4 mph8.7 kmh 29.78 in1008.5 mb 0.00 in0.0 mm 0.00 in0.0 mm 0.04 in1.0 mm
07:48 PM 44.2°F6.8°C 40.6°F4.8°C 87% 6.0 mph E9.7 kmh E 6.9 mph11.1 kmh 29.78 in1008.5 mb 0.00 in0.0 mm 0.00 in0.0 mm 0.04 in1.0 mm
07:50 PM 44.1°F6.7°C 40.4°F4.7°C 87% 5.4 mph E8.7 kmh E 6.9 mph11.1 kmh 29.78 in1008.5 mb 0.00 in0.0 mm 0.00 in0.0 mm 0.04 in1.0 mm
07:52 PM 44.1°F6.7°C 40.4°F4.7°C 87% 5.4 mph SE8.7 kmh SE 6.0 mph9.7 kmh 29.78 in1008.5 mb 0.00 in0.0 mm 0.00 in0.0 mm 0.04 in1.0 mm
07:54 PM 44.1°F6.7°C 40.4°F4.7°C 87% 4.5 mph E7.2 kmh E 5.4 mph8.7 kmh 29.79 in1008.8 mb 0.00 in0.0 mm 0.00 in0.0 mm 0.04 in1.0 mm
07:56 PM 43.9°F6.6°C 40.3°F4.6°C 87% 5.4 mph E8.7 kmh E 6.0 mph9.7 kmh 29.78 in1008.5 mb 0.00 in0.0 mm 0.00 in0.0 mm 0.04 in1.0 mm
07:58 PM 43.7°F6.5°C 40.1°F4.5°C 87% 5.4 mph ENE8.7 kmh ENE 6.0 mph9.7 kmh 29.78 in1008.5 mb 0.00 in0.0 mm 0.00 in0.0 mm 0.04 in1.0 mm
08:01 PM 43.7°F6.5°C 40.1°F4.5°C 87% 3.8 mph SE6.1 kmh SE 6.0 mph9.7 kmh 29.78 in1008.5 mb 0.00 in0.0 mm 0.00 in0.0 mm 0.04 in1.0 mm
08:03 PM 43.7°F6.5°C 40.1°F4.5°C 87% 3.8 mph SE6.1 kmh SE 6.0 mph9.7 kmh 29.78 in1008.5 mb 0.00 in0.0 mm 0.00 in0.0 mm 0.04 in1.0 mm
08:05 PM 43.7°F6.5°C 40.1°F4.5°C 87% 3.8 mph SE6.1 kmh SE 6.0 mph9.7 kmh 29.78 in1008.5 mb 0.00 in0.0 mm 0.00 in0.0 mm 0.04 in1.0 mm
08:07 PM 43.3°F6.3°C 39.7°F4.3°C 87% 6.0 mph SE9.7 kmh SE 6.9 mph11.1 kmh 29.78 in1008.5 mb 0.00 in0.0 mm 0.00 in0.0 mm 0.04 in1.0 mm
08:09 PM 43.3°F6.3°C 39.7°F4.3°C 87% 4.5 mph SE7.2 kmh SE 5.4 mph8.7 kmh 29.78 in1008.5 mb 0.00 in0.0 mm 0.00 in0.0 mm 0.04 in1.0 mm
08:11 PM 43.3°F6.3°C 39.7°F4.3°C 87% 5.4 mph SE8.7 kmh SE 6.0 mph9.7 kmh 29.78 in1008.5 mb 0.00 in0.0 mm 0.00 in0.0 mm 0.04 in1.0 mm
08:13 PM 43.5°F6.4°C 39.9°F4.4°C 87% 8.3 mph SE13.4 kmh SE 9.8 mph15.8 kmh 29.78 in1008.5 mb 0.00 in0.0 mm 0.00 in0.0 mm 0.04 in1.0 mm
08:15 PM 43.5°F6.4°C 39.9°F4.4°C 87% 4.5 mph S7.2 kmh S 5.4 mph8.7 kmh 29.78 in1008.5 mb 0.00 in0.0 mm 0.00 in0.0 mm 0.04 in1.0 mm
08:17 PM 43.7°F6.5°C 40.1°F4.5°C 87% 8.3 mph S13.4 kmh S 10.7 mph17.2 kmh 29.79 in1008.8 mb 0.00 in0.0 mm 0.00 in0.0 mm 0.04 in1.0 mm
08:19 PM 43.9°F6.6°C 40.6°F4.8°C 88% 4.5 mph SE7.2 kmh SE 6.9 mph11.1 kmh 29.78 in1008.5 mb 0.00 in0.0 mm 0.00 in0.0 mm 0.04 in1.0 mm
08:21 PM 43.9°F6.6°C 40.6°F4.8°C 88% 6.9 mph SSE11.1 kmh SSE 9.2 mph14.8 kmh 29.78 in1008.5 mb 0.00 in0.0 mm 0.00 in0.0 mm 0.04 in1.0 mm
08:23 PM 44.1°F6.7°C 40.7°F4.8°C 88% 5.4 mph S8.7 kmh S 6.9 mph11.1 kmh 29.78 in1008.5 mb 0.00 in0.0 mm 0.00 in0.0 mm 0.04 in1.0 mm
08:25 PM 44.1°F6.7°C 40.7°F4.8°C 88% 4.5 mph S7.2 kmh S 5.4 mph8.7 kmh 29.78 in1008.5 mb 0.00 in0.0 mm 0.00 in0.0 mm 0.04 in1.0 mm
08:27 PM 44.2°F6.8°C 41.2°F5.1°C 89% 5.4 mph S8.7 kmh S 8.3 mph13.4 kmh 29.78 in1008.5 mb 0.00 in0.0 mm 0.00 in0.0 mm 0.04 in1.0 mm
08:29 PM 44.2°F6.8°C 41.2°F5.1°C 89% 4.5 mph S7.2 kmh S 5.4 mph8.7 kmh 29.78 in1008.5 mb 0.00 in0.0 mm 0.00 in0.0 mm 0.04 in1.0 mm
08:31 PM 44.2°F6.8°C 41.2°F5.1°C 89% 6.9 mph SE11.1 kmh SE 8.3 mph13.4 kmh 29.78 in1008.5 mb 0.00 in0.0 mm 0.00 in0.0 mm 0.04 in1.0 mm
08:33 PM 44.2°F6.8°C 41.2°F5.1°C 89% 6.0 mph S9.7 kmh S 6.9 mph11.1 kmh 29.78 in1008.5 mb 0.00 in0.0 mm 0.00 in0.0 mm 0.04 in1.0 mm
08:35 PM 44.2°F6.8°C 41.2°F5.1°C 89% 5.4 mph SE8.7 kmh SE 8.3 mph13.4 kmh 29.78 in1008.5 mb 0.00 in0.0 mm 0.00 in0.0 mm 0.04 in1.0 mm
08:37 PM 44.2°F6.8°C 41.2°F5.1°C 89% 6.0 mph S9.7 kmh S 7.6 mph12.2 kmh 29.78 in1008.5 mb 0.00 in0.0 mm 0.00 in0.0 mm 0.04 in1.0 mm
08:39 PM 44.4°F6.9°C 41.4°F5.2°C 89% 8.3 mph SE13.4 kmh SE 11.4 mph18.3 kmh 29.78 in1008.5 mb 0.00 in0.0 mm 0.00 in0.0 mm 0.04 in1.0 mm
08:41 PM 44.4°F6.9°C 41.4°F5.2°C 89% 6.0 mph S9.7 kmh S 8.3 mph13.4 kmh 29.78 in1008.5 mb 0.00 in0.0 mm 0.00 in0.0 mm 0.04 in1.0 mm
08:43 PM 44.4°F6.9°C 41.1°F5.1°C 88% 3.1 mph SE5.0 kmh SE 4.5 mph7.2 kmh 29.78 in1008.5 mb 0.00 in0.0 mm 0.00 in0.0 mm 0.04 in1.0 mm
08:45 PM 44.4°F6.9°C 41.1°F5.1°C 88% 3.8 mph SE6.1 kmh SE 5.4 mph8.7 kmh 29.78 in1008.5 mb 0.00 in0.0 mm 0.00 in0.0 mm 0.04 in1.0 mm
08:47 PM 44.4°F6.9°C 41.1°F5.1°C 88% 4.5 mph SE7.2 kmh SE 5.4 mph8.7 kmh 29.78 in1008.5 mb 0.00 in0.0 mm 0.00 in0.0 mm 0.04 in1.0 mm
08:49 PM 44.4°F6.9°C 41.1°F5.1°C 88% 6.9 mph E11.1 kmh E 9.8 mph15.8 kmh 29.78 in1008.5 mb 0.00 in0.0 mm 0.00 in0.0 mm 0.04 in1.0 mm
08:51 PM 44.4°F6.9°C 41.1°F5.1°C 88% 4.5 mph S7.2 kmh S 7.6 mph12.2 kmh 29.78 in1008.5 mb 0.00 in0.0 mm 0.00 in0.0 mm 0.04 in1.0 mm
08:53 PM 44.4°F6.9°C 41.1°F5.1°C 88% 4.5 mph SE7.2 kmh SE 6.0 mph9.7 kmh 29.78 in1008.5 mb 0.00 in0.0 mm 0.00 in0.0 mm 0.04 in1.0 mm
08:55 PM 44.4°F6.9°C 41.1°F5.1°C 88% 6.9 mph SE11.1 kmh SE 9.2 mph14.8 kmh 29.78 in1008.5 mb 0.00 in0.0 mm 0.00 in0.0 mm 0.04 in1.0 mm
08:57 PM 44.4°F6.9°C 41.1°F5.1°C 88% 6.9 mph SE11.1 kmh SE 8.3 mph13.4 kmh 29.78 in1008.5 mb 0.00 in0.0 mm 0.00 in0.0 mm 0.04 in1.0 mm
08:59 PM 44.4°F6.9°C 40.8°F4.9°C 87% 5.4 mph SE8.7 kmh SE 7.6 mph12.2 kmh 29.78 in1008.5 mb 0.00 in0.0 mm 0.00 in0.0 mm 0.04 in1.0 mm
09:01 PM 44.4°F6.9°C 40.8°F4.9°C 87% 9.8 mph SE15.8 kmh SE 13.0 mph20.9 kmh 29.78 in1008.5 mb 0.00 in0.0 mm 0.00 in0.0 mm 0.04 in1.0 mm
09:03 PM 44.4°F6.9°C 40.8°F4.9°C 87% 9.2 mph SE14.8 kmh SE 12.1 mph19.5 kmh 29.78 in1008.5 mb 0.00 in0.0 mm 0.00 in0.0 mm 0.04 in1.0 mm
09:05 PM 44.4°F6.9°C 40.8°F4.9°C 87% 9.2 mph SE14.8 kmh SE 10.7 mph17.2 kmh 29.78 in1008.5 mb 0.00 in0.0 mm 0.00 in0.0 mm 0.04 in1.0 mm
09:07 PM 44.4°F6.9°C 40.8°F4.9°C 87% 8.3 mph E13.4 kmh E 12.1 mph19.5 kmh 29.78 in1008.5 mb 0.00 in0.0 mm 0.00 in0.0 mm 0.04 in1.0 mm
09:09 PM 44.4°F6.9°C 40.8°F4.9°C 87% 8.3 mph SE13.4 kmh SE 9.8 mph15.8 kmh 29.78 in1008.5 mb 0.00 in0.0 mm 0.00 in0.0 mm 0.04 in1.0 mm
09:11 PM 44.4°F6.9°C 40.5°F4.7°C 86% 11.4 mph SE18.3 kmh SE 13.0 mph20.9 kmh 29.78 in1008.5 mb 0.00 in0.0 mm 0.00 in0.0 mm 0.04 in1.0 mm
09:13 PM 44.4°F6.9°C 40.5°F4.7°C 86% 13.0 mph S20.9 kmh S 15.9 mph25.6 kmh 29.78 in1008.5 mb 0.00 in0.0 mm 0.00 in0.0 mm 0.04 in1.0 mm
09:15 PM 44.4°F6.9°C 40.5°F4.7°C 86% 6.9 mph S11.1 kmh S 7.6 mph12.2 kmh 29.78 in1008.5 mb 0.00 in0.0 mm 0.00 in0.0 mm 0.04 in1.0 mm
09:17 PM 44.4°F6.9°C 40.5°F4.7°C 86% 3.8 mph S6.1 kmh S 7.6 mph12.2 kmh 29.78 in1008.5 mb 0.00 in0.0 mm 0.00 in0.0 mm 0.04 in1.0 mm
09:19 PM 44.6°F7.0°C 40.7°F4.8°C 86% 6.9 mph S11.1 kmh S 9.8 mph15.8 kmh 29.78 in1008.5 mb 0.00 in0.0 mm 0.00 in0.0 mm 0.04 in1.0 mm
09:21 PM 44.6°F7.0°C 40.7°F4.8°C 86% 6.9 mph S11.1 kmh S 10.7 mph17.2 kmh 29.78 in1008.5 mb 0.00 in0.0 mm 0.00 in0.0 mm 0.04 in1.0 mm
09:23 PM 44.6°F7.0°C 40.4°F4.7°C 85% 6.9 mph S11.1 kmh S 8.3 mph13.4 kmh 29.78 in1008.5 mb 0.00 in0.0 mm 0.00 in0.0 mm 0.04 in1.0 mm
09:27 PM 44.6°F7.0°C 40.4°F4.7°C 85% 4.5 mph S7.2 kmh S 5.4 mph8.7 kmh 29.78 in1008.5 mb 0.00 in0.0 mm 0.00 in0.0 mm 0.04 in1.0 mm
09:29 PM 44.4°F6.9°C 40.2°F4.6°C 85% 3.1 mph S5.0 kmh S 3.8 mph6.1 kmh 29.78 in1008.5 mb 0.00 in0.0 mm 0.00 in0.0 mm 0.04 in1.0 mm
09:31 PM 44.4°F6.9°C 40.2°F4.6°C 85% 4.5 mph S7.2 kmh S 6.9 mph11.1 kmh 29.78 in1008.5 mb 0.00 in0.0 mm 0.00 in0.0 mm 0.04 in1.0 mm
09:33 PM 44.4°F6.9°C 40.2°F4.6°C 85% 3.1 mph SE5.0 kmh SE 4.5 mph7.2 kmh 29.78 in1008.5 mb 0.00 in0.0 mm 0.00 in0.0 mm 0.04 in1.0 mm
09:35 PM 44.4°F6.9°C 40.2°F4.6°C 85% 3.8 mph S6.1 kmh S 4.5 mph7.2 kmh 29.78 in1008.5 mb 0.00 in0.0 mm 0.00 in0.0 mm 0.04 in1.0 mm
09:37 PM 44.4°F6.9°C 40.2°F4.6°C 85% 3.8 mph SE6.1 kmh SE 4.5 mph7.2 kmh 29.78 in1008.5 mb 0.00 in0.0 mm 0.00 in0.0 mm 0.04 in1.0 mm
09:39 PM 44.4°F6.9°C 40.2°F4.6°C 85% 3.1 mph S5.0 kmh S 3.8 mph6.1 kmh 29.78 in1008.5 mb 0.00 in0.0 mm 0.00 in0.0 mm 0.04 in1.0 mm
09:41 PM 44.4°F6.9°C 40.2°F4.6°C 85% 2.2 mph SE3.5 kmh SE 3.1 mph5.0 kmh 29.78 in1008.5 mb 0.00 in0.0 mm 0.00 in0.0 mm 0.04 in1.0 mm
09:43 PM 44.4°F6.9°C 40.2°F4.6°C 85% 4.5 mph SE7.2 kmh SE 6.9 mph11.1 kmh 29.78 in1008.5 mb 0.00 in0.0 mm 0.00 in0.0 mm 0.04 in1.0 mm
09:45 PM 44.4°F6.9°C 40.2°F4.6°C 85% 6.0 mph SE9.7 kmh SE 6.9 mph11.1 kmh 29.78 in1008.5 mb 0.00 in0.0 mm 0.00 in0.0 mm 0.04 in1.0 mm
09:47 PM 44.4°F6.9°C 40.2°F4.6°C 85% 4.5 mph SE7.2 kmh SE 6.0 mph9.7 kmh 29.78 in1008.5 mb 0.00 in0.0 mm 0.00 in0.0 mm 0.04 in1.0 mm
09:49 PM 44.4°F6.9°C 39.9°F4.4°C 84% 4.5 mph SSE7.2 kmh SSE 5.4 mph8.7 kmh 29.78 in1008.5 mb 0.00 in0.0 mm 0.00 in0.0 mm 0.04 in1.0 mm
09:51 PM 44.4°F6.9°C 39.9°F4.4°C 84% 3.8 mph SE6.1 kmh SE 5.4 mph8.7 kmh 29.78 in1008.5 mb 0.00 in0.0 mm 0.00 in0.0 mm 0.04 in1.0 mm
09:53 PM 44.4°F6.9°C 39.9°F4.4°C 84% 4.5 mph SE7.2 kmh SE 5.4 mph8.7 kmh 29.78 in1008.5 mb 0.00 in0.0 mm 0.00 in0.0 mm 0.04 in1.0 mm
09:55 PM 44.6°F7.0°C 40.1°F4.5°C 84% 4.5 mph S7.2 kmh S 6.0 mph9.7 kmh 29.78 in1008.5 mb 0.00 in0.0 mm 0.00 in0.0 mm 0.04 in1.0 mm
09:57 PM 44.6°F7.0°C 40.1°F4.5°C 84% 5.4 mph S8.7 kmh S 6.9 mph11.1 kmh 29.78 in1008.5 mb 0.00 in0.0 mm 0.00 in0.0 mm 0.04 in1.0 mm
09:59 PM 44.6°F7.0°C 40.1°F4.5°C 84% 3.8 mph SE6.1 kmh SE 6.0 mph9.7 kmh 29.78 in1008.5 mb 0.00 in0.0 mm 0.00 in0.0 mm 0.04 in1.0 mm
10:01 PM 44.6°F7.0°C 40.1°F4.5°C 84% 3.8 mph SE6.1 kmh SE 6.0 mph9.7 kmh 29.78 in1008.5 mb 0.00 in0.0 mm 0.00 in0.0 mm 0.04 in1.0 mm
10:03 PM 44.6°F7.0°C 40.1°F4.5°C 84% 3.8 mph SE6.1 kmh SE 6.0 mph9.7 kmh 29.78 in1008.5 mb 0.00 in0.0 mm 0.00 in0.0 mm 0.04 in1.0 mm
10:05 PM 44.6°F7.0°C 40.1°F4.5°C 84% 3.8 mph SE6.1 kmh SE 6.0 mph9.7 kmh 29.79 in1008.8 mb 0.00 in0.0 mm 0.00 in0.0 mm 0.04 in1.0 mm
10:07 PM 44.6°F7.0°C 40.1°F4.5°C 84% 3.8 mph SE6.1 kmh SE 6.0 mph9.7 kmh 29.79 in1008.8 mb 0.00 in0.0 mm 0.00 in0.0 mm 0.04 in1.0 mm
10:09 PM 44.6°F7.0°C 39.8°F4.3°C 83% 3.8 mph SE6.1 kmh SE 5.4 mph8.7 kmh 29.79 in1008.8 mb 0.00 in0.0 mm 0.00 in0.0 mm 0.04 in1.0 mm
10:11 PM 44.6°F7.0°C 39.8°F4.3°C 83% 2.2 mph SE3.5 kmh SE 3.1 mph5.0 kmh 29.79 in1008.8 mb 0.00 in0.0 mm 0.00 in0.0 mm 0.04 in1.0 mm
10:13 PM 44.6°F7.0°C 39.8°F4.3°C 83% 6.0 mph SE9.7 kmh SE 6.9 mph11.1 kmh 29.78 in1008.5 mb 0.00 in0.0 mm 0.00 in0.0 mm 0.04 in1.0 mm
10:15 PM 44.6°F7.0°C 39.8°F4.3°C 83% 2.2 mph SE3.5 kmh SE 3.1 mph5.0 kmh 29.78 in1008.5 mb 0.00 in0.0 mm 0.00 in0.0 mm 0.04 in1.0 mm
10:17 PM 44.6°F7.0°C 39.8°F4.3°C 83% 3.1 mph SE5.0 kmh SE 4.5 mph7.2 kmh 29.78 in1008.5 mb 0.00 in0.0 mm 0.00 in0.0 mm 0.04 in1.0 mm
10:19 PM 44.6°F7.0°C 39.8°F4.3°C 83% 6.0 mph SSE9.7 kmh SSE 7.6 mph12.2 kmh 29.78 in1008.5 mb 0.00 in0.0 mm 0.00 in0.0 mm 0.04 in1.0 mm
10:21 PM 44.8°F7.1°C 39.9°F4.4°C 83% 3.8 mph SE6.1 kmh SE 4.5 mph7.2 kmh 29.78 in1008.5 mb 0.00 in0.0 mm 0.00 in0.0 mm 0.04 in1.0 mm
10:23 PM 44.8°F7.1°C 39.9°F4.4°C 83% 3.8 mph SE6.1 kmh SE 5.4 mph8.7 kmh 29.78 in1008.5 mb 0.00 in0.0 mm 0.00 in0.0 mm 0.04 in1.0 mm
10:25 PM 44.8°F7.1°C 39.9°F4.4°C 83% 3.1 mph S5.0 kmh S 3.8 mph6.1 kmh 29.78 in1008.5 mb 0.00 in0.0 mm 0.00 in0.0 mm 0.04 in1.0 mm
10:27 PM 44.8°F7.1°C 39.9°F4.4°C 83% 3.8 mph SE6.1 kmh SE 4.5 mph7.2 kmh 29.78 in1008.5 mb 0.00 in0.0 mm 0.00 in0.0 mm 0.04 in1.0 mm
10:29 PM 44.8°F7.1°C 39.9°F4.4°C 83% 3.1 mph S5.0 kmh S 3.8 mph6.1 kmh 29.78 in1008.5 mb 0.00 in0.0 mm 0.00 in0.0 mm 0.04 in1.0 mm
10:31 PM 44.8°F7.1°C 39.9°F4.4°C 83% 3.1 mph S5.0 kmh S 4.5 mph7.2 kmh 29.78 in1008.5 mb 0.00 in0.0 mm 0.00 in0.0 mm 0.04 in1.0 mm
10:33 PM 44.8°F7.1°C 39.9°F4.4°C 83% 3.1 mph S5.0 kmh S 3.8 mph6.1 kmh 29.78 in1008.5 mb 0.00 in0.0 mm 0.00 in0.0 mm 0.04 in1.0 mm
10:35 PM 44.8°F7.1°C 39.9°F4.4°C 83% 3.1 mph SE5.0 kmh SE 3.8 mph6.1 kmh 29.78 in1008.5 mb 0.00 in0.0 mm 0.00 in0.0 mm 0.04 in1.0 mm
10:37 PM 44.8°F7.1°C 39.9°F4.4°C 83% 1.6 mph S2.6 kmh S 2.2 mph3.5 kmh 29.78 in1008.5 mb 0.00 in0.0 mm 0.00 in0.0 mm 0.04 in1.0 mm
10:39 PM 44.8°F7.1°C 39.9°F4.4°C 83% 6.0 mph SE9.7 kmh SE 6.9 mph11.1 kmh 29.78 in1008.5 mb 0.00 in0.0 mm 0.00 in0.0 mm 0.04 in1.0 mm
10:41 PM 44.8°F7.1°C 39.9°F4.4°C 83% 2.2 mph S3.5 kmh S 3.8 mph6.1 kmh 29.78 in1008.5 mb 0.00 in0.0 mm 0.00 in0.0 mm 0.04 in1.0 mm
10:43 PM 44.8°F7.1°C 39.9°F4.4°C 83% 6.0 mph SE9.7 kmh SE 7.6 mph12.2 kmh 29.78 in1008.5 mb 0.00 in0.0 mm 0.00 in0.0 mm 0.04 in1.0 mm
10:45 PM 44.8°F7.1°C 39.9°F4.4°C 83% 5.4 mph SE8.7 kmh SE 7.6 mph12.2 kmh 29.77 in1008.1 mb 0.00 in0.0 mm 0.00 in0.0 mm 0.04 in1.0 mm
10:47 PM 44.8°F7.1°C 39.9°F4.4°C 83% 6.9 mph S11.1 kmh S 7.6 mph12.2 kmh 29.78 in1008.5 mb 0.00 in0.0 mm 0.00 in0.0 mm 0.04 in1.0 mm
10:49 PM 44.8°F7.1°C 39.9°F4.4°C 83% 5.4 mph S8.7 kmh S 6.9 mph11.1 kmh 29.78 in1008.5 mb 0.00 in0.0 mm 0.00 in0.0 mm 0.04 in1.0 mm
10:51 PM 45.0°F7.2°C 40.1°F4.5°C 83% 3.1 mph SE5.0 kmh SE 7.6 mph12.2 kmh 29.78 in1008.5 mb 0.00 in0.0 mm 0.00 in0.0 mm 0.04 in1.0 mm
10:53 PM 45.0°F7.2°C 40.1°F4.5°C 83% 4.5 mph S7.2 kmh S 6.0 mph9.7 kmh 29.77 in1008.1 mb 0.00 in0.0 mm 0.00 in0.0 mm 0.04 in1.0 mm
10:55 PM 45.0°F7.2°C 40.1°F4.5°C 83% 3.8 mph SE6.1 kmh SE 5.4 mph8.7 kmh 29.77 in1008.1 mb 0.00 in0.0 mm 0.00 in0.0 mm 0.04 in1.0 mm
10:57 PM 45.0°F7.2°C 40.1°F4.5°C 83% 4.5 mph S7.2 kmh S 6.0 mph9.7 kmh 29.77 in1008.1 mb 0.00 in0.0 mm 0.00 in0.0 mm 0.04 in1.0 mm
10:59 PM 45.0°F7.2°C 40.4°F4.7°C 84% 6.9 mph SSE11.1 kmh SSE 7.6 mph12.2 kmh 29.78 in1008.5 mb 0.00 in0.0 mm 0.00 in0.0 mm 0.04 in1.0 mm
11:01 PM 45.0°F7.2°C 40.4°F4.7°C 84% 3.8 mph S6.1 kmh S 4.5 mph7.2 kmh 29.77 in1008.1 mb 0.00 in0.0 mm 0.00 in0.0 mm 0.04 in1.0 mm
11:03 PM 45.0°F7.2°C 40.4°F4.7°C 84% 4.5 mph S7.2 kmh S 5.4 mph8.7 kmh 29.77 in1008.1 mb 0.00 in0.0 mm 0.00 in0.0 mm 0.04 in1.0 mm
11:05 PM 45.0°F7.2°C 40.4°F4.7°C 84% 8.3 mph S13.4 kmh S 9.8 mph15.8 kmh 29.76 in1007.8 mb 0.00 in0.0 mm 0.00 in0.0 mm 0.04 in1.0 mm
11:07 PM 45.0°F7.2°C 40.4°F4.7°C 84% 3.8 mph S6.1 kmh S 5.4 mph8.7 kmh 29.77 in1008.1 mb 0.00 in0.0 mm 0.00 in0.0 mm 0.04 in1.0 mm
11:09 PM 45.0°F7.2°C 40.4°F4.7°C 84% 4.5 mph S7.2 kmh S 5.4 mph8.7 kmh 29.77 in1008.1 mb 0.00 in0.0 mm 0.00 in0.0 mm 0.04 in1.0 mm
11:11 PM 45.0°F7.2°C 40.4°F4.7°C 84% 6.0 mph SE9.7 kmh SE 7.6 mph12.2 kmh 29.77 in1008.1 mb 0.00 in0.0 mm 0.00 in0.0 mm 0.04 in1.0 mm
11:13 PM 45.0°F7.2°C 40.4°F4.7°C 84% 4.5 mph SSE7.2 kmh SSE 6.0 mph9.7 kmh 29.77 in1008.1 mb 0.00 in0.0 mm 0.00 in0.0 mm 0.04 in1.0 mm
11:15 PM 45.0°F7.2°C 40.4°F4.7°C 84% 5.4 mph S8.7 kmh S 6.9 mph11.1 kmh 29.77 in1008.1 mb 0.00 in0.0 mm 0.00 in0.0 mm 0.04 in1.0 mm
11:17 PM 45.0°F7.2°C 40.4°F4.7°C 84% 5.4 mph SSE8.7 kmh SSE 6.0 mph9.7 kmh 29.77 in1008.1 mb 0.00 in0.0 mm 0.00 in0.0 mm 0.04 in1.0 mm
11:19 PM 45.0°F7.2°C 40.7°F4.8°C 85% 5.4 mph S8.7 kmh S 6.9 mph11.1 kmh 29.77 in1008.1 mb 0.00 in0.0 mm 0.00 in0.0 mm 0.04 in1.0 mm
11:21 PM 45.0°F7.2°C 40.7°F4.8°C 85% 3.1 mph S5.0 kmh S 3.8 mph6.1 kmh 29.77 in1008.1 mb 0.00 in0.0 mm 0.00 in0.0 mm 0.04 in1.0 mm
11:23 PM 45.0°F7.2°C 40.7°F4.8°C 85% 3.8 mph S6.1 kmh S 4.5 mph7.2 kmh 29.77 in1008.1 mb 0.00 in0.0 mm 0.00 in0.0 mm 0.04 in1.0 mm
11:25 PM 45.0°F7.2°C 40.7°F4.8°C 85% 3.8 mph S6.1 kmh S 4.5 mph7.2 kmh 29.77 in1008.1 mb 0.00 in0.0 mm 0.00 in0.0 mm 0.04 in1.0 mm
11:27 PM 45.0°F7.2°C 40.7°F4.8°C 85% 7.6 mph S12.2 kmh S 9.2 mph14.8 kmh 29.77 in1008.1 mb 0.00 in0.0 mm 0.00 in0.0 mm 0.04 in1.0 mm
11:29 PM 45.0°F7.2°C 40.7°F4.8°C 85% 3.8 mph S6.1 kmh S 4.5 mph7.2 kmh 29.77 in1008.1 mb 0.00 in0.0 mm 0.00 in0.0 mm 0.04 in1.0 mm
11:31 PM 45.0°F7.2°C 40.7°F4.8°C 85% 5.4 mph S8.7 kmh S 6.0 mph9.7 kmh 29.77 in1008.1 mb 0.00 in0.0 mm 0.00 in0.0 mm 0.04 in1.0 mm
11:33 PM 45.0°F7.2°C 40.7°F4.8°C 85% 3.1 mph SE5.0 kmh SE 4.5 mph7.2 kmh 29.77 in1008.1 mb 0.00 in0.0 mm 0.00 in0.0 mm 0.04 in1.0 mm
11:35 PM 44.8°F7.1°C 40.6°F4.8°C 85% 5.4 mph SE8.7 kmh SE 6.9 mph11.1 kmh 29.76 in1007.8 mb 0.00 in0.0 mm 0.00 in0.0 mm 0.04 in1.0 mm
11:37 PM 45.0°F7.2°C 40.7°F4.8°C 85% 4.5 mph S7.2 kmh S 5.4 mph8.7 kmh 29.77 in1008.1 mb 0.00 in0.0 mm 0.00 in0.0 mm 0.04 in1.0 mm
11:39 PM 45.0°F7.2°C 40.7°F4.8°C 85% 4.5 mph SE7.2 kmh SE 6.0 mph9.7 kmh 29.77 in1008.1 mb 0.00 in0.0 mm 0.00 in0.0 mm 0.04 in1.0 mm
11:41 PM 45.0°F7.2°C 40.7°F4.8°C 85% 3.1 mph SE5.0 kmh SE 3.8 mph6.1 kmh 29.77 in1008.1 mb 0.00 in0.0 mm 0.00 in0.0 mm 0.04 in1.0 mm
11:43 PM 45.0°F7.2°C 40.7°F4.8°C 85% 3.8 mph S6.1 kmh S 4.5 mph7.2 kmh 29.77 in1008.1 mb 0.00 in0.0 mm 0.00 in0.0 mm 0.04 in1.0 mm
11:45 PM 45.0°F7.2°C 40.7°F4.8°C 85% 3.1 mph S5.0 kmh S 4.5 mph7.2 kmh 29.77 in1008.1 mb 0.00 in0.0 mm 0.00 in0.0 mm 0.04 in1.0 mm
11:47 PM 45.0°F7.2°C 40.7°F4.8°C 85% 6.9 mph S11.1 kmh S 9.2 mph14.8 kmh 29.77 in1008.1 mb 0.00 in0.0 mm 0.00 in0.0 mm 0.04 in1.0 mm
11:49 PM 45.0°F7.2°C 40.7°F4.8°C 85% 7.6 mph SE12.2 kmh SE 9.8 mph15.8 kmh 29.77 in1008.1 mb 0.00 in0.0 mm 0.00 in0.0 mm 0.04 in1.0 mm
11:51 PM 45.0°F7.2°C 40.7°F4.8°C 85% 3.8 mph S6.1 kmh S 5.4 mph8.7 kmh 29.77 in1008.1 mb 0.00 in0.0 mm 0.00 in0.0 mm 0.04 in1.0 mm
11:53 PM 45.1°F7.3°C 40.9°F4.9°C 85% 9.2 mph S14.8 kmh S 9.8 mph15.8 kmh 29.77 in1008.1 mb 0.00 in0.0 mm 0.00 in0.0 mm 0.04 in1.0 mm
11:55 PM 45.1°F7.3°C 40.9°F4.9°C 85% 6.0 mph SE9.7 kmh SE 9.8 mph15.8 kmh 29.77 in1008.1 mb 0.00 in0.0 mm 0.00 in0.0 mm 0.04 in1.0 mm
11:57 PM 45.1°F7.3°C 40.9°F4.9°C 85% 5.4 mph S8.7 kmh S 7.6 mph12.2 kmh 29.77 in1008.1 mb 0.00 in0.0 mm 0.00 in0.0 mm 0.04 in1.0 mm
11:59 PM 45.1°F7.3°C 40.9°F4.9°C 85% 8.3 mph SE13.4 kmh SE 9.2 mph14.8 kmh 29.77 in1008.1 mb 0.00 in0.0 mm 0.00 in0.0 mm 0.04 in1.0 mm